<?xml version="1.0" encoding="UTF-8" standalone="no" ?>
<gpx xmlns="http://www.topografix.com/GPX/1/1" xmlns:xsi="http://www.w3.org/2001/XMLSchema-instance" xsi:schemaLocation="http://www.topografix.com/GPX/1/1 http://www.topografix.com/GPX/1/1/gpx.xsd" version="1.1" creator="VisuGPX - https://www.visugpx.com">
  <metadata>
    <name>Randonnée des orgues (78)</name>
    <desc><![CDATA[Une randonnée de 19 km en  haute vallée de Chevreuse avec 5 concerts d'orgues . Cette 28e édition a été organisée par l'association orgueol.org. L'événement a pour but de redonner  ou doter à certaines églises leur instrument d'antan. 
Récit à lire sur [url]http://trekkingzone.wordpress.com[/url]]]></desc>
  </metadata>
  <trk>
    <name><![CDATA[28 mars 2016 09:33:22]]></name>
    <cmt><![CDATA[28 mars 2016 09:33:22]]></cmt>
    <trkseg>
      <trkpt lat="48.72422" lon="1.95811">
        <ele>125</ele>
        <time>2016-03-28T07:33:23Z</time>
      </trkpt>
      <trkpt lat="48.72416" lon="1.9581">
        <ele>127</ele>
        <time>2016-03-28T07:33:35Z</time>
      </trkpt>
      <trkpt lat="48.72427" lon="1.95853">
        <ele>128</ele>
        <time>2016-03-28T07:42:23Z</time>
      </trkpt>
      <trkpt lat="48.72427" lon="1.95861">
        <ele>128</ele>
        <time>2016-03-28T07:42:28Z</time>
      </trkpt>
      <trkpt lat="48.72423" lon="1.95862">
        <ele>128</ele>
        <time>2016-03-28T07:42:38Z</time>
      </trkpt>
      <trkpt lat="48.72422" lon="1.95867">
        <ele>129</ele>
        <time>2016-03-28T07:43:12Z</time>
      </trkpt>
      <trkpt lat="48.7242" lon="1.95873">
        <ele>129</ele>
        <time>2016-03-28T07:43:45Z</time>
      </trkpt>
      <trkpt lat="48.72419" lon="1.95889">
        <ele>128</ele>
        <time>2016-03-28T07:43:53Z</time>
      </trkpt>
      <trkpt lat="48.7242" lon="1.95898">
        <ele>128</ele>
        <time>2016-03-28T07:43:58Z</time>
      </trkpt>
      <trkpt lat="48.72419" lon="1.95906">
        <ele>128</ele>
        <time>2016-03-28T07:44:03Z</time>
      </trkpt>
      <trkpt lat="48.72418" lon="1.95909">
        <ele>128</ele>
        <time>2016-03-28T07:44:10Z</time>
      </trkpt>
      <trkpt lat="48.72419" lon="1.95907">
        <ele>128</ele>
        <time>2016-03-28T07:44:38Z</time>
      </trkpt>
      <trkpt lat="48.7242" lon="1.959">
        <ele>127</ele>
        <time>2016-03-28T07:44:58Z</time>
      </trkpt>
      <trkpt lat="48.72422" lon="1.95885">
        <ele>127</ele>
        <time>2016-03-28T07:45:08Z</time>
      </trkpt>
      <trkpt lat="48.72424" lon="1.95876">
        <ele>127</ele>
        <time>2016-03-28T07:45:13Z</time>
      </trkpt>
      <trkpt lat="48.72421" lon="1.95872">
        <ele>128</ele>
        <time>2016-03-28T07:46:07Z</time>
      </trkpt>
      <trkpt lat="48.72424" lon="1.95866">
        <ele>128</ele>
        <time>2016-03-28T07:46:40Z</time>
      </trkpt>
      <trkpt lat="48.72427" lon="1.95872">
        <ele>128</ele>
        <time>2016-03-28T07:46:55Z</time>
      </trkpt>
      <trkpt lat="48.72431" lon="1.95886">
        <ele>127</ele>
        <time>2016-03-28T07:47:03Z</time>
      </trkpt>
      <trkpt lat="48.72432" lon="1.95893">
        <ele>127</ele>
        <time>2016-03-28T07:47:11Z</time>
      </trkpt>
      <trkpt lat="48.72448" lon="1.95935">
        <ele>128</ele>
        <time>2016-03-28T07:47:43Z</time>
      </trkpt>
      <trkpt lat="48.72455" lon="1.95952">
        <ele>129</ele>
        <time>2016-03-28T07:48:04Z</time>
      </trkpt>
      <trkpt lat="48.72454" lon="1.95959">
        <ele>129</ele>
        <time>2016-03-28T07:48:17Z</time>
      </trkpt>
      <trkpt lat="48.72456" lon="1.95977">
        <ele>132</ele>
        <time>2016-03-28T07:48:36Z</time>
      </trkpt>
      <trkpt lat="48.72455" lon="1.95986">
        <ele>132</ele>
        <time>2016-03-28T07:48:39Z</time>
      </trkpt>
      <trkpt lat="48.72456" lon="1.96016">
        <ele>135</ele>
        <time>2016-03-28T07:49:01Z</time>
      </trkpt>
      <trkpt lat="48.7246" lon="1.96019">
        <ele>137</ele>
        <time>2016-03-28T07:49:10Z</time>
      </trkpt>
      <trkpt lat="48.72459" lon="1.96026">
        <ele>137</ele>
        <time>2016-03-28T07:49:18Z</time>
      </trkpt>
      <trkpt lat="48.7246" lon="1.96034">
        <ele>138</ele>
        <time>2016-03-28T07:49:23Z</time>
      </trkpt>
      <trkpt lat="48.72456" lon="1.96057">
        <ele>140</ele>
        <time>2016-03-28T07:49:43Z</time>
      </trkpt>
      <trkpt lat="48.72458" lon="1.96075">
        <ele>140</ele>
        <time>2016-03-28T07:49:58Z</time>
      </trkpt>
      <trkpt lat="48.72459" lon="1.9609">
        <ele>141</ele>
        <time>2016-03-28T07:50:07Z</time>
      </trkpt>
      <trkpt lat="48.72462" lon="1.96097">
        <ele>142</ele>
        <time>2016-03-28T07:50:12Z</time>
      </trkpt>
      <trkpt lat="48.72467" lon="1.96144">
        <ele>143</ele>
        <time>2016-03-28T07:50:42Z</time>
      </trkpt>
      <trkpt lat="48.72465" lon="1.9615">
        <ele>143</ele>
        <time>2016-03-28T07:50:46Z</time>
      </trkpt>
      <trkpt lat="48.72466" lon="1.96158">
        <ele>143</ele>
        <time>2016-03-28T07:50:51Z</time>
      </trkpt>
      <trkpt lat="48.7247" lon="1.96165">
        <ele>144</ele>
        <time>2016-03-28T07:50:58Z</time>
      </trkpt>
      <trkpt lat="48.7247" lon="1.96169">
        <ele>145</ele>
        <time>2016-03-28T07:51:09Z</time>
      </trkpt>
      <trkpt lat="48.72469" lon="1.96177">
        <ele>145</ele>
        <time>2016-03-28T07:51:12Z</time>
      </trkpt>
      <trkpt lat="48.72474" lon="1.96192">
        <ele>147</ele>
        <time>2016-03-28T07:51:21Z</time>
      </trkpt>
      <trkpt lat="48.72492" lon="1.96227">
        <ele>153</ele>
        <time>2016-03-28T07:51:52Z</time>
      </trkpt>
      <trkpt lat="48.72499" lon="1.96265">
        <ele>158</ele>
        <time>2016-03-28T07:52:28Z</time>
      </trkpt>
      <trkpt lat="48.72502" lon="1.96273">
        <ele>159</ele>
        <time>2016-03-28T07:52:37Z</time>
      </trkpt>
      <trkpt lat="48.72504" lon="1.9628">
        <ele>160</ele>
        <time>2016-03-28T07:52:42Z</time>
      </trkpt>
      <trkpt lat="48.72503" lon="1.96288">
        <ele>161</ele>
        <time>2016-03-28T07:52:46Z</time>
      </trkpt>
      <trkpt lat="48.72514" lon="1.96332">
        <ele>165</ele>
        <time>2016-03-28T07:53:46Z</time>
      </trkpt>
      <trkpt lat="48.72513" lon="1.96339">
        <ele>165</ele>
        <time>2016-03-28T07:53:49Z</time>
      </trkpt>
      <trkpt lat="48.72517" lon="1.96353">
        <ele>165</ele>
        <time>2016-03-28T07:53:56Z</time>
      </trkpt>
      <trkpt lat="48.72524" lon="1.96374">
        <ele>166</ele>
        <time>2016-03-28T07:54:10Z</time>
      </trkpt>
      <trkpt lat="48.72521" lon="1.96379">
        <ele>166</ele>
        <time>2016-03-28T07:54:14Z</time>
      </trkpt>
      <trkpt lat="48.7252" lon="1.96396">
        <ele>166</ele>
        <time>2016-03-28T07:54:24Z</time>
      </trkpt>
      <trkpt lat="48.72521" lon="1.96444">
        <ele>168</ele>
        <time>2016-03-28T07:54:58Z</time>
      </trkpt>
      <trkpt lat="48.72522" lon="1.96457">
        <ele>167</ele>
        <time>2016-03-28T07:55:10Z</time>
      </trkpt>
      <trkpt lat="48.72519" lon="1.96464">
        <ele>167</ele>
        <time>2016-03-28T07:55:14Z</time>
      </trkpt>
      <trkpt lat="48.72521" lon="1.96472">
        <ele>167</ele>
        <time>2016-03-28T07:55:20Z</time>
      </trkpt>
      <trkpt lat="48.72523" lon="1.9648">
        <ele>167</ele>
        <time>2016-03-28T07:55:30Z</time>
      </trkpt>
      <trkpt lat="48.72517" lon="1.96547">
        <ele>166</ele>
        <time>2016-03-28T07:56:07Z</time>
      </trkpt>
      <trkpt lat="48.72517" lon="1.96555">
        <ele>166</ele>
        <time>2016-03-28T07:56:12Z</time>
      </trkpt>
      <trkpt lat="48.7252" lon="1.96561">
        <ele>166</ele>
        <time>2016-03-28T07:56:18Z</time>
      </trkpt>
      <trkpt lat="48.72521" lon="1.96577">
        <ele>166</ele>
        <time>2016-03-28T07:56:29Z</time>
      </trkpt>
      <trkpt lat="48.72496" lon="1.96639">
        <ele>165</ele>
        <time>2016-03-28T07:57:02Z</time>
      </trkpt>
      <trkpt lat="48.72488" lon="1.96663">
        <ele>165</ele>
        <time>2016-03-28T07:57:20Z</time>
      </trkpt>
      <trkpt lat="48.72486" lon="1.96669">
        <ele>165</ele>
        <time>2016-03-28T07:57:30Z</time>
      </trkpt>
      <trkpt lat="48.72481" lon="1.96672">
        <ele>165</ele>
        <time>2016-03-28T07:57:36Z</time>
      </trkpt>
      <trkpt lat="48.72466" lon="1.96713">
        <ele>165</ele>
        <time>2016-03-28T07:58:10Z</time>
      </trkpt>
      <trkpt lat="48.72463" lon="1.96731">
        <ele>164</ele>
        <time>2016-03-28T07:58:18Z</time>
      </trkpt>
      <trkpt lat="48.72469" lon="1.96779">
        <ele>164</ele>
        <time>2016-03-28T07:58:49Z</time>
      </trkpt>
      <trkpt lat="48.72475" lon="1.96801">
        <ele>164</ele>
        <time>2016-03-28T07:59:00Z</time>
      </trkpt>
      <trkpt lat="48.72486" lon="1.96822">
        <ele>164</ele>
        <time>2016-03-28T07:59:14Z</time>
      </trkpt>
      <trkpt lat="48.7249" lon="1.96826">
        <ele>164</ele>
        <time>2016-03-28T07:59:20Z</time>
      </trkpt>
      <trkpt lat="48.72496" lon="1.96847">
        <ele>163</ele>
        <time>2016-03-28T07:59:35Z</time>
      </trkpt>
      <trkpt lat="48.72502" lon="1.96855">
        <ele>163</ele>
        <time>2016-03-28T07:59:43Z</time>
      </trkpt>
      <trkpt lat="48.72523" lon="1.96907">
        <ele>162</ele>
        <time>2016-03-28T08:00:14Z</time>
      </trkpt>
      <trkpt lat="48.72526" lon="1.9692">
        <ele>163</ele>
        <time>2016-03-28T08:00:22Z</time>
      </trkpt>
      <trkpt lat="48.72519" lon="1.96983">
        <ele>161</ele>
        <time>2016-03-28T08:00:57Z</time>
      </trkpt>
      <trkpt lat="48.72521" lon="1.9699">
        <ele>160</ele>
        <time>2016-03-28T08:01:03Z</time>
      </trkpt>
      <trkpt lat="48.72525" lon="1.96993">
        <ele>160</ele>
        <time>2016-03-28T08:01:10Z</time>
      </trkpt>
      <trkpt lat="48.72524" lon="1.97001">
        <ele>160</ele>
        <time>2016-03-28T08:01:15Z</time>
      </trkpt>
      <trkpt lat="48.72522" lon="1.97024">
        <ele>160</ele>
        <time>2016-03-28T08:01:29Z</time>
      </trkpt>
      <trkpt lat="48.72518" lon="1.97045">
        <ele>159</ele>
        <time>2016-03-28T08:01:41Z</time>
      </trkpt>
      <trkpt lat="48.72516" lon="1.97104">
        <ele>158</ele>
        <time>2016-03-28T08:02:14Z</time>
      </trkpt>
      <trkpt lat="48.72516" lon="1.97143">
        <ele>158</ele>
        <time>2016-03-28T08:02:36Z</time>
      </trkpt>
      <trkpt lat="48.72514" lon="1.97155">
        <ele>158</ele>
        <time>2016-03-28T08:02:44Z</time>
      </trkpt>
      <trkpt lat="48.7251" lon="1.97159">
        <ele>159</ele>
        <time>2016-03-28T08:02:49Z</time>
      </trkpt>
      <trkpt lat="48.72504" lon="1.9716">
        <ele>159</ele>
        <time>2016-03-28T08:02:54Z</time>
      </trkpt>
      <trkpt lat="48.72499" lon="1.97159">
        <ele>159</ele>
        <time>2016-03-28T08:02:59Z</time>
      </trkpt>
      <trkpt lat="48.72494" lon="1.97159">
        <ele>159</ele>
        <time>2016-03-28T08:03:03Z</time>
      </trkpt>
      <trkpt lat="48.7249" lon="1.97161">
        <ele>159</ele>
        <time>2016-03-28T08:03:07Z</time>
      </trkpt>
      <trkpt lat="48.72484" lon="1.97163">
        <ele>158</ele>
        <time>2016-03-28T08:03:11Z</time>
      </trkpt>
      <trkpt lat="48.72455" lon="1.9717">
        <ele>157</ele>
        <time>2016-03-28T08:03:39Z</time>
      </trkpt>
      <trkpt lat="48.72451" lon="1.97171">
        <ele>157</ele>
        <time>2016-03-28T08:03:44Z</time>
      </trkpt>
      <trkpt lat="48.72441" lon="1.97178">
        <ele>157</ele>
        <time>2016-03-28T08:03:51Z</time>
      </trkpt>
      <trkpt lat="48.72437" lon="1.97178">
        <ele>157</ele>
        <time>2016-03-28T08:03:56Z</time>
      </trkpt>
      <trkpt lat="48.72402" lon="1.9719">
        <ele>153</ele>
        <time>2016-03-28T08:04:27Z</time>
      </trkpt>
      <trkpt lat="48.72369" lon="1.97212">
        <ele>148</ele>
        <time>2016-03-28T08:04:59Z</time>
      </trkpt>
      <trkpt lat="48.72365" lon="1.97216">
        <ele>148</ele>
        <time>2016-03-28T08:05:03Z</time>
      </trkpt>
      <trkpt lat="48.7235" lon="1.97219">
        <ele>146</ele>
        <time>2016-03-28T08:05:20Z</time>
      </trkpt>
      <trkpt lat="48.72346" lon="1.97223">
        <ele>145</ele>
        <time>2016-03-28T08:05:23Z</time>
      </trkpt>
      <trkpt lat="48.72341" lon="1.97222">
        <ele>145</ele>
        <time>2016-03-28T08:05:29Z</time>
      </trkpt>
      <trkpt lat="48.72323" lon="1.97232">
        <ele>140</ele>
        <time>2016-03-28T08:05:53Z</time>
      </trkpt>
      <trkpt lat="48.72317" lon="1.97234">
        <ele>140</ele>
        <time>2016-03-28T08:05:58Z</time>
      </trkpt>
      <trkpt lat="48.72312" lon="1.97237">
        <ele>140</ele>
        <time>2016-03-28T08:06:01Z</time>
      </trkpt>
      <trkpt lat="48.72307" lon="1.97238">
        <ele>140</ele>
        <time>2016-03-28T08:06:07Z</time>
      </trkpt>
      <trkpt lat="48.72304" lon="1.97243">
        <ele>139</ele>
        <time>2016-03-28T08:06:12Z</time>
      </trkpt>
      <trkpt lat="48.72294" lon="1.97249">
        <ele>138</ele>
        <time>2016-03-28T08:06:21Z</time>
      </trkpt>
      <trkpt lat="48.72279" lon="1.9727">
        <ele>137</ele>
        <time>2016-03-28T08:06:33Z</time>
      </trkpt>
      <trkpt lat="48.72274" lon="1.97271">
        <ele>136</ele>
        <time>2016-03-28T08:06:47Z</time>
      </trkpt>
      <trkpt lat="48.72268" lon="1.97284">
        <ele>135</ele>
        <time>2016-03-28T08:06:54Z</time>
      </trkpt>
      <trkpt lat="48.72263" lon="1.97287">
        <ele>134</ele>
        <time>2016-03-28T08:07:00Z</time>
      </trkpt>
      <trkpt lat="48.7226" lon="1.97292">
        <ele>134</ele>
        <time>2016-03-28T08:07:04Z</time>
      </trkpt>
      <trkpt lat="48.72255" lon="1.97291">
        <ele>134</ele>
        <time>2016-03-28T08:07:12Z</time>
      </trkpt>
      <trkpt lat="48.72247" lon="1.97297">
        <ele>133</ele>
        <time>2016-03-28T08:07:33Z</time>
      </trkpt>
      <trkpt lat="48.72236" lon="1.9731">
        <ele>132</ele>
        <time>2016-03-28T08:07:43Z</time>
      </trkpt>
      <trkpt lat="48.72231" lon="1.97307">
        <ele>132</ele>
        <time>2016-03-28T08:07:49Z</time>
      </trkpt>
      <trkpt lat="48.72229" lon="1.97311">
        <ele>131</ele>
        <time>2016-03-28T08:07:56Z</time>
      </trkpt>
      <trkpt lat="48.72221" lon="1.97321">
        <ele>130</ele>
        <time>2016-03-28T08:08:08Z</time>
      </trkpt>
      <trkpt lat="48.72217" lon="1.97324">
        <ele>130</ele>
        <time>2016-03-28T08:08:11Z</time>
      </trkpt>
      <trkpt lat="48.72204" lon="1.97331">
        <ele>130</ele>
        <time>2016-03-28T08:08:37Z</time>
      </trkpt>
      <trkpt lat="48.72188" lon="1.97347">
        <ele>124</ele>
        <time>2016-03-28T08:09:24Z</time>
      </trkpt>
      <trkpt lat="48.72185" lon="1.97341">
        <ele>123</ele>
        <time>2016-03-28T08:09:32Z</time>
      </trkpt>
      <trkpt lat="48.72182" lon="1.97334">
        <ele>123</ele>
        <time>2016-03-28T08:09:37Z</time>
      </trkpt>
      <trkpt lat="48.72169" lon="1.97317">
        <ele>125</ele>
        <time>2016-03-28T08:09:58Z</time>
      </trkpt>
      <trkpt lat="48.72151" lon="1.97275">
        <ele>128</ele>
        <time>2016-03-28T08:10:24Z</time>
      </trkpt>
      <trkpt lat="48.72149" lon="1.97262">
        <ele>128</ele>
        <time>2016-03-28T08:10:33Z</time>
      </trkpt>
      <trkpt lat="48.72143" lon="1.97251">
        <ele>127</ele>
        <time>2016-03-28T08:10:47Z</time>
      </trkpt>
      <trkpt lat="48.72142" lon="1.97243">
        <ele>128</ele>
        <time>2016-03-28T08:10:55Z</time>
      </trkpt>
      <trkpt lat="48.72132" lon="1.97221">
        <ele>127</ele>
        <time>2016-03-28T08:11:05Z</time>
      </trkpt>
      <trkpt lat="48.72126" lon="1.97219">
        <ele>127</ele>
        <time>2016-03-28T08:11:09Z</time>
      </trkpt>
      <trkpt lat="48.72121" lon="1.97217">
        <ele>127</ele>
        <time>2016-03-28T08:11:13Z</time>
      </trkpt>
      <trkpt lat="48.72116" lon="1.97216">
        <ele>127</ele>
        <time>2016-03-28T08:11:21Z</time>
      </trkpt>
      <trkpt lat="48.72114" lon="1.97209">
        <ele>127</ele>
        <time>2016-03-28T08:11:28Z</time>
      </trkpt>
      <trkpt lat="48.72097" lon="1.97192">
        <ele>126</ele>
        <time>2016-03-28T08:11:59Z</time>
      </trkpt>
      <trkpt lat="48.72087" lon="1.97192">
        <ele>126</ele>
        <time>2016-03-28T08:12:13Z</time>
      </trkpt>
      <trkpt lat="48.72083" lon="1.97196">
        <ele>127</ele>
        <time>2016-03-28T08:12:42Z</time>
      </trkpt>
      <trkpt lat="48.72085" lon="1.9721">
        <ele>128</ele>
        <time>2016-03-28T08:12:48Z</time>
      </trkpt>
      <trkpt lat="48.72086" lon="1.97223">
        <ele>131</ele>
        <time>2016-03-28T08:13:04Z</time>
      </trkpt>
      <trkpt lat="48.72091" lon="1.97235">
        <ele>131</ele>
        <time>2016-03-28T08:13:11Z</time>
      </trkpt>
      <trkpt lat="48.72093" lon="1.9726">
        <ele>134</ele>
        <time>2016-03-28T08:13:41Z</time>
      </trkpt>
      <trkpt lat="48.7209" lon="1.97273">
        <ele>135</ele>
        <time>2016-03-28T08:13:49Z</time>
      </trkpt>
      <trkpt lat="48.72097" lon="1.97302">
        <ele>136</ele>
        <time>2016-03-28T08:14:14Z</time>
      </trkpt>
      <trkpt lat="48.72118" lon="1.97348">
        <ele>140</ele>
        <time>2016-03-28T08:14:49Z</time>
      </trkpt>
      <trkpt lat="48.72124" lon="1.97359">
        <ele>142</ele>
        <time>2016-03-28T08:14:59Z</time>
      </trkpt>
      <trkpt lat="48.7213" lon="1.97397">
        <ele>146</ele>
        <time>2016-03-28T08:15:39Z</time>
      </trkpt>
      <trkpt lat="48.72132" lon="1.97446">
        <ele>150</ele>
        <time>2016-03-28T08:16:11Z</time>
      </trkpt>
      <trkpt lat="48.72135" lon="1.97502">
        <ele>155</ele>
        <time>2016-03-28T08:16:42Z</time>
      </trkpt>
      <trkpt lat="48.72139" lon="1.97516">
        <ele>156</ele>
        <time>2016-03-28T08:16:50Z</time>
      </trkpt>
      <trkpt lat="48.72145" lon="1.97538">
        <ele>158</ele>
        <time>2016-03-28T08:17:06Z</time>
      </trkpt>
      <trkpt lat="48.72158" lon="1.97561">
        <ele>158</ele>
        <time>2016-03-28T08:17:23Z</time>
      </trkpt>
      <trkpt lat="48.72163" lon="1.97573">
        <ele>159</ele>
        <time>2016-03-28T08:17:31Z</time>
      </trkpt>
      <trkpt lat="48.72169" lon="1.97584">
        <ele>160</ele>
        <time>2016-03-28T08:17:40Z</time>
      </trkpt>
      <trkpt lat="48.72173" lon="1.97596">
        <ele>160</ele>
        <time>2016-03-28T08:17:50Z</time>
      </trkpt>
      <trkpt lat="48.72182" lon="1.976">
        <ele>160</ele>
        <time>2016-03-28T08:18:00Z</time>
      </trkpt>
      <trkpt lat="48.72194" lon="1.97626">
        <ele>159</ele>
        <time>2016-03-28T08:18:13Z</time>
      </trkpt>
      <trkpt lat="48.72199" lon="1.97638">
        <ele>158</ele>
        <time>2016-03-28T08:18:26Z</time>
      </trkpt>
      <trkpt lat="48.72209" lon="1.97654">
        <ele>158</ele>
        <time>2016-03-28T08:18:37Z</time>
      </trkpt>
      <trkpt lat="48.7221" lon="1.97661">
        <ele>158</ele>
        <time>2016-03-28T08:18:51Z</time>
      </trkpt>
      <trkpt lat="48.72206" lon="1.97668">
        <ele>158</ele>
        <time>2016-03-28T08:18:55Z</time>
      </trkpt>
      <trkpt lat="48.72196" lon="1.97674">
        <ele>158</ele>
        <time>2016-03-28T08:19:01Z</time>
      </trkpt>
      <trkpt lat="48.72187" lon="1.97684">
        <ele>159</ele>
        <time>2016-03-28T08:19:10Z</time>
      </trkpt>
      <trkpt lat="48.72178" lon="1.97686">
        <ele>160</ele>
        <time>2016-03-28T08:19:19Z</time>
      </trkpt>
      <trkpt lat="48.72163" lon="1.97693">
        <ele>161</ele>
        <time>2016-03-28T08:19:38Z</time>
      </trkpt>
      <trkpt lat="48.72154" lon="1.97691">
        <ele>161</ele>
        <time>2016-03-28T08:19:45Z</time>
      </trkpt>
      <trkpt lat="48.72144" lon="1.97695">
        <ele>161</ele>
        <time>2016-03-28T08:19:54Z</time>
      </trkpt>
      <trkpt lat="48.72139" lon="1.97697">
        <ele>161</ele>
        <time>2016-03-28T08:20:02Z</time>
      </trkpt>
      <trkpt lat="48.72134" lon="1.97698">
        <ele>161</ele>
        <time>2016-03-28T08:20:07Z</time>
      </trkpt>
      <trkpt lat="48.72121" lon="1.97687">
        <ele>162</ele>
        <time>2016-03-28T08:20:22Z</time>
      </trkpt>
      <trkpt lat="48.72115" lon="1.97688">
        <ele>163</ele>
        <time>2016-03-28T08:20:28Z</time>
      </trkpt>
      <trkpt lat="48.72094" lon="1.97696">
        <ele>163</ele>
        <time>2016-03-28T08:20:41Z</time>
      </trkpt>
      <trkpt lat="48.72056" lon="1.97699">
        <ele>163</ele>
        <time>2016-03-28T08:21:11Z</time>
      </trkpt>
      <trkpt lat="48.72053" lon="1.97704">
        <ele>163</ele>
        <time>2016-03-28T08:21:15Z</time>
      </trkpt>
      <trkpt lat="48.72038" lon="1.97756">
        <ele>165</ele>
        <time>2016-03-28T08:21:53Z</time>
      </trkpt>
      <trkpt lat="48.72024" lon="1.97829">
        <ele>165</ele>
        <time>2016-03-28T08:22:24Z</time>
      </trkpt>
      <trkpt lat="48.72024" lon="1.97843">
        <ele>165</ele>
        <time>2016-03-28T08:22:30Z</time>
      </trkpt>
      <trkpt lat="48.72022" lon="1.97904">
        <ele>165</ele>
        <time>2016-03-28T08:23:01Z</time>
      </trkpt>
      <trkpt lat="48.72018" lon="1.97968">
        <ele>165</ele>
        <time>2016-03-28T08:23:31Z</time>
      </trkpt>
      <trkpt lat="48.72011" lon="1.98026">
        <ele>166</ele>
        <time>2016-03-28T08:24:01Z</time>
      </trkpt>
      <trkpt lat="48.72008" lon="1.98033">
        <ele>166</ele>
        <time>2016-03-28T08:24:04Z</time>
      </trkpt>
      <trkpt lat="48.72006" lon="1.9804">
        <ele>166</ele>
        <time>2016-03-28T08:24:07Z</time>
      </trkpt>
      <trkpt lat="48.71992" lon="1.98095">
        <ele>167</ele>
        <time>2016-03-28T08:24:39Z</time>
      </trkpt>
      <trkpt lat="48.71992" lon="1.98102">
        <ele>167</ele>
        <time>2016-03-28T08:25:06Z</time>
      </trkpt>
      <trkpt lat="48.71993" lon="1.98103">
        <ele>167</ele>
        <time>2016-03-28T08:25:32Z</time>
      </trkpt>
      <trkpt lat="48.71996" lon="1.98097">
        <ele>166</ele>
        <time>2016-03-28T08:26:56Z</time>
      </trkpt>
      <trkpt lat="48.71996" lon="1.981">
        <ele>166</ele>
        <time>2016-03-28T08:29:09Z</time>
      </trkpt>
      <trkpt lat="48.71993" lon="1.98133">
        <ele>165</ele>
        <time>2016-03-28T08:34:04Z</time>
      </trkpt>
      <trkpt lat="48.71987" lon="1.98197">
        <ele>167</ele>
        <time>2016-03-28T08:34:35Z</time>
      </trkpt>
      <trkpt lat="48.71982" lon="1.98198">
        <ele>167</ele>
        <time>2016-03-28T08:34:40Z</time>
      </trkpt>
      <trkpt lat="48.71977" lon="1.98199">
        <ele>167</ele>
        <time>2016-03-28T08:34:44Z</time>
      </trkpt>
      <trkpt lat="48.71962" lon="1.9822">
        <ele>166</ele>
        <time>2016-03-28T08:35:03Z</time>
      </trkpt>
      <trkpt lat="48.71942" lon="1.98261">
        <ele>166</ele>
        <time>2016-03-28T08:35:34Z</time>
      </trkpt>
      <trkpt lat="48.71939" lon="1.98265">
        <ele>166</ele>
        <time>2016-03-28T08:35:39Z</time>
      </trkpt>
      <trkpt lat="48.7193" lon="1.98284">
        <ele>166</ele>
        <time>2016-03-28T08:35:54Z</time>
      </trkpt>
      <trkpt lat="48.71922" lon="1.98293">
        <ele>166</ele>
        <time>2016-03-28T08:36:06Z</time>
      </trkpt>
      <trkpt lat="48.71912" lon="1.98332">
        <ele>166</ele>
        <time>2016-03-28T08:36:39Z</time>
      </trkpt>
      <trkpt lat="48.71888" lon="1.98371">
        <ele>166</ele>
        <time>2016-03-28T08:37:14Z</time>
      </trkpt>
      <trkpt lat="48.71873" lon="1.98392">
        <ele>166</ele>
        <time>2016-03-28T08:37:29Z</time>
      </trkpt>
      <trkpt lat="48.71868" lon="1.98396">
        <ele>166</ele>
        <time>2016-03-28T08:37:38Z</time>
      </trkpt>
      <trkpt lat="48.71848" lon="1.98426">
        <ele>166</ele>
        <time>2016-03-28T08:38:10Z</time>
      </trkpt>
      <trkpt lat="48.7182" lon="1.9848">
        <ele>165</ele>
        <time>2016-03-28T08:38:40Z</time>
      </trkpt>
      <trkpt lat="48.7181" lon="1.98499">
        <ele>165</ele>
        <time>2016-03-28T08:38:51Z</time>
      </trkpt>
      <trkpt lat="48.71807" lon="1.98505">
        <ele>165</ele>
        <time>2016-03-28T08:38:55Z</time>
      </trkpt>
      <trkpt lat="48.71802" lon="1.98515">
        <ele>165</ele>
        <time>2016-03-28T08:38:59Z</time>
      </trkpt>
      <trkpt lat="48.71791" lon="1.9854">
        <ele>164</ele>
        <time>2016-03-28T08:39:14Z</time>
      </trkpt>
      <trkpt lat="48.71782" lon="1.98559">
        <ele>164</ele>
        <time>2016-03-28T08:39:25Z</time>
      </trkpt>
      <trkpt lat="48.7178" lon="1.98563">
        <ele>164</ele>
        <time>2016-03-28T08:39:32Z</time>
      </trkpt>
      <trkpt lat="48.71756" lon="1.98608">
        <ele>163</ele>
        <time>2016-03-28T08:40:03Z</time>
      </trkpt>
      <trkpt lat="48.71752" lon="1.98615">
        <ele>163</ele>
        <time>2016-03-28T08:40:07Z</time>
      </trkpt>
      <trkpt lat="48.71741" lon="1.98633">
        <ele>163</ele>
        <time>2016-03-28T08:40:19Z</time>
      </trkpt>
      <trkpt lat="48.71737" lon="1.98638">
        <ele>163</ele>
        <time>2016-03-28T08:40:24Z</time>
      </trkpt>
      <trkpt lat="48.71714" lon="1.98684">
        <ele>164</ele>
        <time>2016-03-28T08:40:59Z</time>
      </trkpt>
      <trkpt lat="48.71711" lon="1.9869">
        <ele>164</ele>
        <time>2016-03-28T08:41:03Z</time>
      </trkpt>
      <trkpt lat="48.71708" lon="1.98695">
        <ele>163</ele>
        <time>2016-03-28T08:41:15Z</time>
      </trkpt>
      <trkpt lat="48.71678" lon="1.98747">
        <ele>163</ele>
        <time>2016-03-28T08:41:48Z</time>
      </trkpt>
      <trkpt lat="48.71666" lon="1.98768">
        <ele>163</ele>
        <time>2016-03-28T08:42:07Z</time>
      </trkpt>
      <trkpt lat="48.71656" lon="1.98788">
        <ele>165</ele>
        <time>2016-03-28T08:42:23Z</time>
      </trkpt>
      <trkpt lat="48.71649" lon="1.988">
        <ele>165</ele>
        <time>2016-03-28T08:42:34Z</time>
      </trkpt>
      <trkpt lat="48.71633" lon="1.98862">
        <ele>166</ele>
        <time>2016-03-28T08:43:04Z</time>
      </trkpt>
      <trkpt lat="48.7163" lon="1.98883">
        <ele>167</ele>
        <time>2016-03-28T08:43:20Z</time>
      </trkpt>
      <trkpt lat="48.71626" lon="1.98907">
        <ele>167</ele>
        <time>2016-03-28T08:43:33Z</time>
      </trkpt>
      <trkpt lat="48.71628" lon="1.98922">
        <ele>167</ele>
        <time>2016-03-28T08:43:42Z</time>
      </trkpt>
      <trkpt lat="48.71612" lon="1.98977">
        <ele>167</ele>
        <time>2016-03-28T08:44:15Z</time>
      </trkpt>
      <trkpt lat="48.71604" lon="1.99003">
        <ele>167</ele>
        <time>2016-03-28T08:44:33Z</time>
      </trkpt>
      <trkpt lat="48.71603" lon="1.99011">
        <ele>167</ele>
        <time>2016-03-28T08:44:39Z</time>
      </trkpt>
      <trkpt lat="48.716" lon="1.99016">
        <ele>167</ele>
        <time>2016-03-28T08:44:43Z</time>
      </trkpt>
      <trkpt lat="48.71586" lon="1.99074">
        <ele>167</ele>
        <time>2016-03-28T08:45:16Z</time>
      </trkpt>
      <trkpt lat="48.71572" lon="1.99131">
        <ele>167</ele>
        <time>2016-03-28T08:45:49Z</time>
      </trkpt>
      <trkpt lat="48.71557" lon="1.99172">
        <ele>169</ele>
        <time>2016-03-28T08:46:21Z</time>
      </trkpt>
      <trkpt lat="48.71537" lon="1.99228">
        <ele>168</ele>
        <time>2016-03-28T08:46:54Z</time>
      </trkpt>
      <trkpt lat="48.71522" lon="1.99276">
        <ele>167</ele>
        <time>2016-03-28T08:47:26Z</time>
      </trkpt>
      <trkpt lat="48.71517" lon="1.99288">
        <ele>167</ele>
        <time>2016-03-28T08:47:32Z</time>
      </trkpt>
      <trkpt lat="48.71514" lon="1.99303">
        <ele>166</ele>
        <time>2016-03-28T08:47:44Z</time>
      </trkpt>
      <trkpt lat="48.71513" lon="1.9931">
        <ele>166</ele>
        <time>2016-03-28T08:47:48Z</time>
      </trkpt>
      <trkpt lat="48.71511" lon="1.99318">
        <ele>167</ele>
        <time>2016-03-28T08:47:53Z</time>
      </trkpt>
      <trkpt lat="48.71507" lon="1.99342">
        <ele>166</ele>
        <time>2016-03-28T08:48:06Z</time>
      </trkpt>
      <trkpt lat="48.71506" lon="1.99349">
        <ele>167</ele>
        <time>2016-03-28T08:48:10Z</time>
      </trkpt>
      <trkpt lat="48.71506" lon="1.99358">
        <ele>167</ele>
        <time>2016-03-28T08:48:19Z</time>
      </trkpt>
      <trkpt lat="48.71503" lon="1.99373">
        <ele>167</ele>
        <time>2016-03-28T08:48:26Z</time>
      </trkpt>
      <trkpt lat="48.7149" lon="1.99409">
        <ele>167</ele>
        <time>2016-03-28T08:48:47Z</time>
      </trkpt>
      <trkpt lat="48.71488" lon="1.99438">
        <ele>167</ele>
        <time>2016-03-28T08:49:05Z</time>
      </trkpt>
      <trkpt lat="48.7149" lon="1.99446">
        <ele>167</ele>
        <time>2016-03-28T08:49:10Z</time>
      </trkpt>
      <trkpt lat="48.71481" lon="1.99499">
        <ele>168</ele>
        <time>2016-03-28T08:49:45Z</time>
      </trkpt>
      <trkpt lat="48.7148" lon="1.99507">
        <ele>168</ele>
        <time>2016-03-28T08:49:50Z</time>
      </trkpt>
      <trkpt lat="48.71479" lon="1.99514">
        <ele>167</ele>
        <time>2016-03-28T08:49:55Z</time>
      </trkpt>
      <trkpt lat="48.71477" lon="1.99521">
        <ele>168</ele>
        <time>2016-03-28T08:50:01Z</time>
      </trkpt>
      <trkpt lat="48.71471" lon="1.99575">
        <ele>168</ele>
        <time>2016-03-28T08:50:33Z</time>
      </trkpt>
      <trkpt lat="48.71452" lon="1.99627">
        <ele>167</ele>
        <time>2016-03-28T08:51:08Z</time>
      </trkpt>
      <trkpt lat="48.71454" lon="1.99641">
        <ele>167</ele>
        <time>2016-03-28T08:51:15Z</time>
      </trkpt>
      <trkpt lat="48.71443" lon="1.99685">
        <ele>167</ele>
        <time>2016-03-28T08:51:46Z</time>
      </trkpt>
      <trkpt lat="48.7143" lon="1.99733">
        <ele>167</ele>
        <time>2016-03-28T08:52:17Z</time>
      </trkpt>
      <trkpt lat="48.71406" lon="1.99786">
        <ele>167</ele>
        <time>2016-03-28T08:52:51Z</time>
      </trkpt>
      <trkpt lat="48.71395" lon="1.99826">
        <ele>168</ele>
        <time>2016-03-28T08:53:16Z</time>
      </trkpt>
      <trkpt lat="48.71392" lon="1.99826">
        <ele>168</ele>
        <time>2016-03-28T08:53:39Z</time>
      </trkpt>
      <trkpt lat="48.7139" lon="1.99843">
        <ele>167</ele>
        <time>2016-03-28T08:55:00Z</time>
      </trkpt>
      <trkpt lat="48.71387" lon="1.99849">
        <ele>167</ele>
        <time>2016-03-28T08:55:03Z</time>
      </trkpt>
      <trkpt lat="48.71374" lon="1.99862">
        <ele>168</ele>
        <time>2016-03-28T08:55:14Z</time>
      </trkpt>
      <trkpt lat="48.71371" lon="1.99867">
        <ele>168</ele>
        <time>2016-03-28T08:55:18Z</time>
      </trkpt>
      <trkpt lat="48.71372" lon="1.99874">
        <ele>168</ele>
        <time>2016-03-28T08:55:23Z</time>
      </trkpt>
      <trkpt lat="48.7137" lon="1.99882">
        <ele>167</ele>
        <time>2016-03-28T08:55:30Z</time>
      </trkpt>
      <trkpt lat="48.71364" lon="1.99894">
        <ele>167</ele>
        <time>2016-03-28T08:55:38Z</time>
      </trkpt>
      <trkpt lat="48.7136" lon="1.99906">
        <ele>167</ele>
        <time>2016-03-28T08:55:44Z</time>
      </trkpt>
      <trkpt lat="48.71335" lon="1.99977">
        <ele>167</ele>
        <time>2016-03-28T08:56:16Z</time>
      </trkpt>
      <trkpt lat="48.71333" lon="1.99983">
        <ele>167</ele>
        <time>2016-03-28T08:56:19Z</time>
      </trkpt>
      <trkpt lat="48.71331" lon="2.00006">
        <ele>166</ele>
        <time>2016-03-28T08:56:27Z</time>
      </trkpt>
      <trkpt lat="48.71327" lon="2.00011">
        <ele>166</ele>
        <time>2016-03-28T08:56:32Z</time>
      </trkpt>
      <trkpt lat="48.71311" lon="2.00047">
        <ele>167</ele>
        <time>2016-03-28T08:56:57Z</time>
      </trkpt>
      <trkpt lat="48.71309" lon="2.0007">
        <ele>166</ele>
        <time>2016-03-28T08:57:07Z</time>
      </trkpt>
      <trkpt lat="48.71306" lon="2.00077">
        <ele>166</ele>
        <time>2016-03-28T08:57:12Z</time>
      </trkpt>
      <trkpt lat="48.71305" lon="2.00133">
        <ele>166</ele>
        <time>2016-03-28T08:57:40Z</time>
      </trkpt>
      <trkpt lat="48.71306" lon="2.00155">
        <ele>165</ele>
        <time>2016-03-28T08:57:54Z</time>
      </trkpt>
      <trkpt lat="48.71306" lon="2.00168">
        <ele>165</ele>
        <time>2016-03-28T08:58:21Z</time>
      </trkpt>
      <trkpt lat="48.71311" lon="2.00185">
        <ele>166</ele>
        <time>2016-03-28T08:58:53Z</time>
      </trkpt>
      <trkpt lat="48.7131" lon="2.00226">
        <ele>166</ele>
        <time>2016-03-28T08:59:19Z</time>
      </trkpt>
      <trkpt lat="48.71306" lon="2.00231">
        <ele>166</ele>
        <time>2016-03-28T08:59:24Z</time>
      </trkpt>
      <trkpt lat="48.71292" lon="2.00296">
        <ele>166</ele>
        <time>2016-03-28T08:59:58Z</time>
      </trkpt>
      <trkpt lat="48.71292" lon="2.00304">
        <ele>166</ele>
        <time>2016-03-28T09:00:03Z</time>
      </trkpt>
      <trkpt lat="48.71289" lon="2.0031">
        <ele>167</ele>
        <time>2016-03-28T09:00:06Z</time>
      </trkpt>
      <trkpt lat="48.71281" lon="2.00356">
        <ele>166</ele>
        <time>2016-03-28T09:00:41Z</time>
      </trkpt>
      <trkpt lat="48.7128" lon="2.00366">
        <ele>165</ele>
        <time>2016-03-28T09:00:48Z</time>
      </trkpt>
      <trkpt lat="48.71277" lon="2.00373">
        <ele>165</ele>
        <time>2016-03-28T09:00:52Z</time>
      </trkpt>
      <trkpt lat="48.71266" lon="2.00408">
        <ele>164</ele>
        <time>2016-03-28T09:01:14Z</time>
      </trkpt>
      <trkpt lat="48.71266" lon="2.00419">
        <ele>164</ele>
        <time>2016-03-28T09:01:25Z</time>
      </trkpt>
      <trkpt lat="48.71264" lon="2.00426">
        <ele>164</ele>
        <time>2016-03-28T09:01:31Z</time>
      </trkpt>
      <trkpt lat="48.71253" lon="2.00452">
        <ele>163</ele>
        <time>2016-03-28T09:01:43Z</time>
      </trkpt>
      <trkpt lat="48.71249" lon="2.00461">
        <ele>163</ele>
        <time>2016-03-28T09:01:48Z</time>
      </trkpt>
      <trkpt lat="48.71248" lon="2.00469">
        <ele>163</ele>
        <time>2016-03-28T09:01:53Z</time>
      </trkpt>
      <trkpt lat="48.71229" lon="2.0052">
        <ele>163</ele>
        <time>2016-03-28T09:02:28Z</time>
      </trkpt>
      <trkpt lat="48.71216" lon="2.00572">
        <ele>163</ele>
        <time>2016-03-28T09:03:01Z</time>
      </trkpt>
      <trkpt lat="48.71196" lon="2.00616">
        <ele>163</ele>
        <time>2016-03-28T09:03:28Z</time>
      </trkpt>
      <trkpt lat="48.71197" lon="2.00623">
        <ele>163</ele>
        <time>2016-03-28T09:03:35Z</time>
      </trkpt>
      <trkpt lat="48.71193" lon="2.00627">
        <ele>163</ele>
        <time>2016-03-28T09:03:39Z</time>
      </trkpt>
      <trkpt lat="48.71191" lon="2.00635">
        <ele>163</ele>
        <time>2016-03-28T09:03:44Z</time>
      </trkpt>
      <trkpt lat="48.7117" lon="2.0066">
        <ele>164</ele>
        <time>2016-03-28T09:04:05Z</time>
      </trkpt>
      <trkpt lat="48.71151" lon="2.00673">
        <ele>166</ele>
        <time>2016-03-28T09:04:28Z</time>
      </trkpt>
      <trkpt lat="48.71114" lon="2.00702">
        <ele>166</ele>
        <time>2016-03-28T09:05:02Z</time>
      </trkpt>
      <trkpt lat="48.7111" lon="2.00707">
        <ele>167</ele>
        <time>2016-03-28T09:05:05Z</time>
      </trkpt>
      <trkpt lat="48.71108" lon="2.00715">
        <ele>167</ele>
        <time>2016-03-28T09:05:12Z</time>
      </trkpt>
      <trkpt lat="48.71093" lon="2.00735">
        <ele>166</ele>
        <time>2016-03-28T09:05:39Z</time>
      </trkpt>
      <trkpt lat="48.71087" lon="2.00737">
        <ele>166</ele>
        <time>2016-03-28T09:05:42Z</time>
      </trkpt>
      <trkpt lat="48.71063" lon="2.00763">
        <ele>167</ele>
        <time>2016-03-28T09:05:58Z</time>
      </trkpt>
      <trkpt lat="48.71046" lon="2.00762">
        <ele>167</ele>
        <time>2016-03-28T09:06:09Z</time>
      </trkpt>
      <trkpt lat="48.71041" lon="2.00759">
        <ele>167</ele>
        <time>2016-03-28T09:06:13Z</time>
      </trkpt>
      <trkpt lat="48.71037" lon="2.00754">
        <ele>167</ele>
        <time>2016-03-28T09:06:17Z</time>
      </trkpt>
      <trkpt lat="48.71004" lon="2.00733">
        <ele>167</ele>
        <time>2016-03-28T09:06:56Z</time>
      </trkpt>
      <trkpt lat="48.71002" lon="2.0074">
        <ele>167</ele>
        <time>2016-03-28T09:07:07Z</time>
      </trkpt>
      <trkpt lat="48.70999" lon="2.00746">
        <ele>167</ele>
        <time>2016-03-28T09:07:12Z</time>
      </trkpt>
      <trkpt lat="48.71001" lon="2.00752">
        <ele>167</ele>
        <time>2016-03-28T09:07:17Z</time>
      </trkpt>
      <trkpt lat="48.70998" lon="2.00758">
        <ele>168</ele>
        <time>2016-03-28T09:07:22Z</time>
      </trkpt>
      <trkpt lat="48.70999" lon="2.00772">
        <ele>168</ele>
        <time>2016-03-28T09:07:33Z</time>
      </trkpt>
      <trkpt lat="48.70982" lon="2.00814">
        <ele>168</ele>
        <time>2016-03-28T09:08:02Z</time>
      </trkpt>
      <trkpt lat="48.70979" lon="2.00819">
        <ele>168</ele>
        <time>2016-03-28T09:08:04Z</time>
      </trkpt>
      <trkpt lat="48.7098" lon="2.0083">
        <ele>168</ele>
        <time>2016-03-28T09:08:09Z</time>
      </trkpt>
      <trkpt lat="48.70981" lon="2.00843">
        <ele>168</ele>
        <time>2016-03-28T09:08:19Z</time>
      </trkpt>
      <trkpt lat="48.70975" lon="2.00856">
        <ele>168</ele>
        <time>2016-03-28T09:08:27Z</time>
      </trkpt>
      <trkpt lat="48.70958" lon="2.00905">
        <ele>168</ele>
        <time>2016-03-28T09:08:58Z</time>
      </trkpt>
      <trkpt lat="48.70937" lon="2.00971">
        <ele>169</ele>
        <time>2016-03-28T09:09:33Z</time>
      </trkpt>
      <trkpt lat="48.70918" lon="2.01041">
        <ele>168</ele>
        <time>2016-03-28T09:10:10Z</time>
      </trkpt>
      <trkpt lat="48.70896" lon="2.01105">
        <ele>168</ele>
        <time>2016-03-28T09:10:44Z</time>
      </trkpt>
      <trkpt lat="48.70887" lon="2.01161">
        <ele>168</ele>
        <time>2016-03-28T09:11:14Z</time>
      </trkpt>
      <trkpt lat="48.70866" lon="2.01228">
        <ele>168</ele>
        <time>2016-03-28T09:11:49Z</time>
      </trkpt>
      <trkpt lat="48.70849" lon="2.01295">
        <ele>167</ele>
        <time>2016-03-28T09:12:24Z</time>
      </trkpt>
      <trkpt lat="48.70828" lon="2.01359">
        <ele>167</ele>
        <time>2016-03-28T09:13:02Z</time>
      </trkpt>
      <trkpt lat="48.70824" lon="2.01388">
        <ele>167</ele>
        <time>2016-03-28T09:13:13Z</time>
      </trkpt>
      <trkpt lat="48.70824" lon="2.01418">
        <ele>166</ele>
        <time>2016-03-28T09:13:28Z</time>
      </trkpt>
      <trkpt lat="48.7081" lon="2.01477">
        <ele>166</ele>
        <time>2016-03-28T09:14:00Z</time>
      </trkpt>
      <trkpt lat="48.708" lon="2.01519">
        <ele>165</ele>
        <time>2016-03-28T09:14:20Z</time>
      </trkpt>
      <trkpt lat="48.70791" lon="2.0156">
        <ele>166</ele>
        <time>2016-03-28T09:14:44Z</time>
      </trkpt>
      <trkpt lat="48.70771" lon="2.01624">
        <ele>165</ele>
        <time>2016-03-28T09:15:19Z</time>
      </trkpt>
      <trkpt lat="48.70758" lon="2.0168">
        <ele>165</ele>
        <time>2016-03-28T09:15:51Z</time>
      </trkpt>
      <trkpt lat="48.70744" lon="2.01742">
        <ele>164</ele>
        <time>2016-03-28T09:16:26Z</time>
      </trkpt>
      <trkpt lat="48.70744" lon="2.01749">
        <ele>164</ele>
        <time>2016-03-28T09:16:35Z</time>
      </trkpt>
      <trkpt lat="48.70743" lon="2.01753">
        <ele>164</ele>
        <time>2016-03-28T09:16:42Z</time>
      </trkpt>
      <trkpt lat="48.70744" lon="2.0176">
        <ele>164</ele>
        <time>2016-03-28T09:16:45Z</time>
      </trkpt>
      <trkpt lat="48.7074" lon="2.01765">
        <ele>165</ele>
        <time>2016-03-28T09:18:12Z</time>
      </trkpt>
      <trkpt lat="48.70737" lon="2.01764">
        <ele>166</ele>
        <time>2016-03-28T09:20:18Z</time>
      </trkpt>
      <trkpt lat="48.70731" lon="2.01758">
        <ele>167</ele>
        <time>2016-03-28T09:20:40Z</time>
      </trkpt>
      <trkpt lat="48.70727" lon="2.01759">
        <ele>167</ele>
        <time>2016-03-28T09:21:04Z</time>
      </trkpt>
      <trkpt lat="48.70725" lon="2.0176">
        <ele>167</ele>
        <time>2016-03-28T09:21:10Z</time>
      </trkpt>
      <trkpt lat="48.70723" lon="2.01762">
        <ele>166</ele>
        <time>2016-03-28T09:21:54Z</time>
      </trkpt>
      <trkpt lat="48.70682" lon="2.0174">
        <ele>166</ele>
        <time>2016-03-28T09:22:27Z</time>
      </trkpt>
      <trkpt lat="48.70673" lon="2.01734">
        <ele>166</ele>
        <time>2016-03-28T09:22:37Z</time>
      </trkpt>
      <trkpt lat="48.7067" lon="2.01729">
        <ele>166</ele>
        <time>2016-03-28T09:22:42Z</time>
      </trkpt>
      <trkpt lat="48.70663" lon="2.01729">
        <ele>166</ele>
        <time>2016-03-28T09:22:58Z</time>
      </trkpt>
      <trkpt lat="48.7065" lon="2.01721">
        <ele>166</ele>
        <time>2016-03-28T09:23:10Z</time>
      </trkpt>
      <trkpt lat="48.70608" lon="2.01702">
        <ele>164</ele>
        <time>2016-03-28T09:23:45Z</time>
      </trkpt>
      <trkpt lat="48.70599" lon="2.01694">
        <ele>163</ele>
        <time>2016-03-28T09:23:58Z</time>
      </trkpt>
      <trkpt lat="48.70594" lon="2.01693">
        <ele>163</ele>
        <time>2016-03-28T09:24:05Z</time>
      </trkpt>
      <trkpt lat="48.7059" lon="2.0169">
        <ele>163</ele>
        <time>2016-03-28T09:24:11Z</time>
      </trkpt>
      <trkpt lat="48.70585" lon="2.01689">
        <ele>163</ele>
        <time>2016-03-28T09:24:40Z</time>
      </trkpt>
      <trkpt lat="48.70587" lon="2.01683">
        <ele>162</ele>
        <time>2016-03-28T09:24:49Z</time>
      </trkpt>
      <trkpt lat="48.70588" lon="2.01668">
        <ele>162</ele>
        <time>2016-03-28T09:24:56Z</time>
      </trkpt>
      <trkpt lat="48.70587" lon="2.0166">
        <ele>162</ele>
        <time>2016-03-28T09:25:01Z</time>
      </trkpt>
      <trkpt lat="48.70581" lon="2.01648">
        <ele>161</ele>
        <time>2016-03-28T09:25:08Z</time>
      </trkpt>
      <trkpt lat="48.70582" lon="2.01615">
        <ele>159</ele>
        <time>2016-03-28T09:25:32Z</time>
      </trkpt>
      <trkpt lat="48.70586" lon="2.01609">
        <ele>158</ele>
        <time>2016-03-28T09:25:37Z</time>
      </trkpt>
      <trkpt lat="48.7059" lon="2.01581">
        <ele>156</ele>
        <time>2016-03-28T09:25:57Z</time>
      </trkpt>
      <trkpt lat="48.70591" lon="2.01557">
        <ele>153</ele>
        <time>2016-03-28T09:26:13Z</time>
      </trkpt>
      <trkpt lat="48.70581" lon="2.01555">
        <ele>153</ele>
        <time>2016-03-28T09:26:23Z</time>
      </trkpt>
      <trkpt lat="48.7057" lon="2.01554">
        <ele>152</ele>
        <time>2016-03-28T09:26:33Z</time>
      </trkpt>
      <trkpt lat="48.70568" lon="2.01556">
        <ele>150</ele>
        <time>2016-03-28T09:26:39Z</time>
      </trkpt>
      <trkpt lat="48.70564" lon="2.01565">
        <ele>149</ele>
        <time>2016-03-28T09:26:49Z</time>
      </trkpt>
      <trkpt lat="48.70548" lon="2.01587">
        <ele>146</ele>
        <time>2016-03-28T09:27:10Z</time>
      </trkpt>
      <trkpt lat="48.70539" lon="2.01641">
        <ele>141</ele>
        <time>2016-03-28T09:27:46Z</time>
      </trkpt>
      <trkpt lat="48.70533" lon="2.01699">
        <ele>137</ele>
        <time>2016-03-28T09:28:17Z</time>
      </trkpt>
      <trkpt lat="48.70525" lon="2.0171">
        <ele>136</ele>
        <time>2016-03-28T09:28:22Z</time>
      </trkpt>
      <trkpt lat="48.70494" lon="2.01743">
        <ele>131</ele>
        <time>2016-03-28T09:28:55Z</time>
      </trkpt>
      <trkpt lat="48.70459" lon="2.01798">
        <ele>125</ele>
        <time>2016-03-28T09:29:32Z</time>
      </trkpt>
      <trkpt lat="48.70453" lon="2.01808">
        <ele>124</ele>
        <time>2016-03-28T09:29:41Z</time>
      </trkpt>
      <trkpt lat="48.7045" lon="2.01822">
        <ele>123</ele>
        <time>2016-03-28T09:29:55Z</time>
      </trkpt>
      <trkpt lat="48.70447" lon="2.0183">
        <ele>123</ele>
        <time>2016-03-28T09:29:58Z</time>
      </trkpt>
      <trkpt lat="48.70437" lon="2.01844">
        <ele>121</ele>
        <time>2016-03-28T09:30:04Z</time>
      </trkpt>
      <trkpt lat="48.70433" lon="2.01888">
        <ele>119</ele>
        <time>2016-03-28T09:30:31Z</time>
      </trkpt>
      <trkpt lat="48.70435" lon="2.01902">
        <ele>117</ele>
        <time>2016-03-28T09:30:42Z</time>
      </trkpt>
      <trkpt lat="48.70433" lon="2.01916">
        <ele>116</ele>
        <time>2016-03-28T09:30:48Z</time>
      </trkpt>
      <trkpt lat="48.70404" lon="2.01963">
        <ele>109</ele>
        <time>2016-03-28T09:31:25Z</time>
      </trkpt>
      <trkpt lat="48.70384" lon="2.0199">
        <ele>105</ele>
        <time>2016-03-28T09:31:42Z</time>
      </trkpt>
      <trkpt lat="48.70379" lon="2.01988">
        <ele>104</ele>
        <time>2016-03-28T09:31:48Z</time>
      </trkpt>
      <trkpt lat="48.70375" lon="2.01983">
        <ele>104</ele>
        <time>2016-03-28T09:31:55Z</time>
      </trkpt>
      <trkpt lat="48.70377" lon="2.01976">
        <ele>103</ele>
        <time>2016-03-28T09:31:59Z</time>
      </trkpt>
      <trkpt lat="48.7038" lon="2.01924">
        <ele>101</ele>
        <time>2016-03-28T09:32:29Z</time>
      </trkpt>
      <trkpt lat="48.70377" lon="2.01917">
        <ele>101</ele>
        <time>2016-03-28T09:32:33Z</time>
      </trkpt>
      <trkpt lat="48.70378" lon="2.0191">
        <ele>101</ele>
        <time>2016-03-28T09:32:37Z</time>
      </trkpt>
      <trkpt lat="48.70384" lon="2.01898">
        <ele>101</ele>
        <time>2016-03-28T09:32:45Z</time>
      </trkpt>
      <trkpt lat="48.70389" lon="2.01892">
        <ele>100</ele>
        <time>2016-03-28T09:32:50Z</time>
      </trkpt>
      <trkpt lat="48.70387" lon="2.01884">
        <ele>99</ele>
        <time>2016-03-28T09:32:56Z</time>
      </trkpt>
      <trkpt lat="48.70381" lon="2.01884">
        <ele>99</ele>
        <time>2016-03-28T09:33:00Z</time>
      </trkpt>
      <trkpt lat="48.70378" lon="2.01879">
        <ele>99</ele>
        <time>2016-03-28T09:33:18Z</time>
      </trkpt>
      <trkpt lat="48.70376" lon="2.01869">
        <ele>99</ele>
        <time>2016-03-28T09:33:34Z</time>
      </trkpt>
      <trkpt lat="48.70378" lon="2.01808">
        <ele>96</ele>
        <time>2016-03-28T09:34:06Z</time>
      </trkpt>
      <trkpt lat="48.70365" lon="2.01758">
        <ele>94</ele>
        <time>2016-03-28T09:34:26Z</time>
      </trkpt>
      <trkpt lat="48.70367" lon="2.01744">
        <ele>94</ele>
        <time>2016-03-28T09:34:32Z</time>
      </trkpt>
      <trkpt lat="48.70361" lon="2.01733">
        <ele>94</ele>
        <time>2016-03-28T09:34:38Z</time>
      </trkpt>
      <trkpt lat="48.70357" lon="2.01723">
        <ele>93</ele>
        <time>2016-03-28T09:34:46Z</time>
      </trkpt>
      <trkpt lat="48.70353" lon="2.0172">
        <ele>93</ele>
        <time>2016-03-28T09:34:50Z</time>
      </trkpt>
      <trkpt lat="48.70343" lon="2.01693">
        <ele>92</ele>
        <time>2016-03-28T09:35:04Z</time>
      </trkpt>
      <trkpt lat="48.70342" lon="2.01685">
        <ele>92</ele>
        <time>2016-03-28T09:35:09Z</time>
      </trkpt>
      <trkpt lat="48.70345" lon="2.01634">
        <ele>91</ele>
        <time>2016-03-28T09:35:39Z</time>
      </trkpt>
      <trkpt lat="48.70346" lon="2.01626">
        <ele>91</ele>
        <time>2016-03-28T09:35:42Z</time>
      </trkpt>
      <trkpt lat="48.70345" lon="2.0161">
        <ele>89</ele>
        <time>2016-03-28T09:35:50Z</time>
      </trkpt>
      <trkpt lat="48.70344" lon="2.0157">
        <ele>88</ele>
        <time>2016-03-28T09:36:13Z</time>
      </trkpt>
      <trkpt lat="48.70347" lon="2.01564">
        <ele>87</ele>
        <time>2016-03-28T09:36:18Z</time>
      </trkpt>
      <trkpt lat="48.70345" lon="2.01557">
        <ele>87</ele>
        <time>2016-03-28T09:36:23Z</time>
      </trkpt>
      <trkpt lat="48.70346" lon="2.0155">
        <ele>87</ele>
        <time>2016-03-28T09:36:26Z</time>
      </trkpt>
      <trkpt lat="48.70346" lon="2.0154">
        <ele>87</ele>
        <time>2016-03-28T09:36:33Z</time>
      </trkpt>
      <trkpt lat="48.70346" lon="2.01532">
        <ele>88</ele>
        <time>2016-03-28T09:36:39Z</time>
      </trkpt>
      <trkpt lat="48.70344" lon="2.01507">
        <ele>87</ele>
        <time>2016-03-28T09:36:53Z</time>
      </trkpt>
      <trkpt lat="48.70346" lon="2.01439">
        <ele>88</ele>
        <time>2016-03-28T09:37:29Z</time>
      </trkpt>
      <trkpt lat="48.70348" lon="2.01434">
        <ele>89</ele>
        <time>2016-03-28T09:37:36Z</time>
      </trkpt>
      <trkpt lat="48.70346" lon="2.01424">
        <ele>89</ele>
        <time>2016-03-28T09:37:45Z</time>
      </trkpt>
      <trkpt lat="48.70348" lon="2.0142">
        <ele>89</ele>
        <time>2016-03-28T09:37:52Z</time>
      </trkpt>
      <trkpt lat="48.7035" lon="2.01413">
        <ele>90</ele>
        <time>2016-03-28T09:37:54Z</time>
      </trkpt>
      <trkpt lat="48.70351" lon="2.01409">
        <ele>90</ele>
        <time>2016-03-28T09:38:00Z</time>
      </trkpt>
      <trkpt lat="48.7036" lon="2.01391">
        <ele>90</ele>
        <time>2016-03-28T09:38:12Z</time>
      </trkpt>
      <trkpt lat="48.70365" lon="2.01354">
        <ele>92</ele>
        <time>2016-03-28T09:38:43Z</time>
      </trkpt>
      <trkpt lat="48.70371" lon="2.01346">
        <ele>92</ele>
        <time>2016-03-28T09:38:49Z</time>
      </trkpt>
      <trkpt lat="48.70388" lon="2.01316">
        <ele>93</ele>
        <time>2016-03-28T09:39:14Z</time>
      </trkpt>
      <trkpt lat="48.70395" lon="2.0129">
        <ele>94</ele>
        <time>2016-03-28T09:39:36Z</time>
      </trkpt>
      <trkpt lat="48.70397" lon="2.01268">
        <ele>94</ele>
        <time>2016-03-28T09:39:54Z</time>
      </trkpt>
      <trkpt lat="48.70392" lon="2.01213">
        <ele>94</ele>
        <time>2016-03-28T09:40:27Z</time>
      </trkpt>
      <trkpt lat="48.70394" lon="2.01207">
        <ele>94</ele>
        <time>2016-03-28T09:40:31Z</time>
      </trkpt>
      <trkpt lat="48.704" lon="2.01187">
        <ele>94</ele>
        <time>2016-03-28T09:40:41Z</time>
      </trkpt>
      <trkpt lat="48.704" lon="2.01179">
        <ele>95</ele>
        <time>2016-03-28T09:40:45Z</time>
      </trkpt>
      <trkpt lat="48.70403" lon="2.01173">
        <ele>95</ele>
        <time>2016-03-28T09:40:50Z</time>
      </trkpt>
      <trkpt lat="48.70401" lon="2.01166">
        <ele>95</ele>
        <time>2016-03-28T09:40:54Z</time>
      </trkpt>
      <trkpt lat="48.70405" lon="2.01144">
        <ele>95</ele>
        <time>2016-03-28T09:41:09Z</time>
      </trkpt>
      <trkpt lat="48.70408" lon="2.01139">
        <ele>95</ele>
        <time>2016-03-28T09:41:14Z</time>
      </trkpt>
      <trkpt lat="48.70405" lon="2.01132">
        <ele>95</ele>
        <time>2016-03-28T09:41:18Z</time>
      </trkpt>
      <trkpt lat="48.70405" lon="2.01123">
        <ele>95</ele>
        <time>2016-03-28T09:41:22Z</time>
      </trkpt>
      <trkpt lat="48.70409" lon="2.01118">
        <ele>95</ele>
        <time>2016-03-28T09:41:26Z</time>
      </trkpt>
      <trkpt lat="48.70413" lon="2.01114">
        <ele>94</ele>
        <time>2016-03-28T09:41:30Z</time>
      </trkpt>
      <trkpt lat="48.70411" lon="2.01111">
        <ele>94</ele>
        <time>2016-03-28T09:41:44Z</time>
      </trkpt>
      <trkpt lat="48.70407" lon="2.01105">
        <ele>94</ele>
        <time>2016-03-28T09:42:38Z</time>
      </trkpt>
      <trkpt lat="48.70401" lon="2.01097">
        <ele>94</ele>
        <time>2016-03-28T09:42:42Z</time>
      </trkpt>
      <trkpt lat="48.70401" lon="2.0109">
        <ele>94</ele>
        <time>2016-03-28T09:42:47Z</time>
      </trkpt>
      <trkpt lat="48.70401" lon="2.01075">
        <ele>94</ele>
        <time>2016-03-28T09:42:55Z</time>
      </trkpt>
      <trkpt lat="48.70402" lon="2.01052">
        <ele>94</ele>
        <time>2016-03-28T09:43:07Z</time>
      </trkpt>
      <trkpt lat="48.70412" lon="2.0101">
        <ele>94</ele>
        <time>2016-03-28T09:43:30Z</time>
      </trkpt>
      <trkpt lat="48.7041" lon="2.01003">
        <ele>94</ele>
        <time>2016-03-28T09:43:33Z</time>
      </trkpt>
      <trkpt lat="48.70413" lon="2.00965">
        <ele>95</ele>
        <time>2016-03-28T09:43:51Z</time>
      </trkpt>
      <trkpt lat="48.70418" lon="2.00951">
        <ele>96</ele>
        <time>2016-03-28T09:43:58Z</time>
      </trkpt>
      <trkpt lat="48.70418" lon="2.00937">
        <ele>96</ele>
        <time>2016-03-28T09:44:05Z</time>
      </trkpt>
      <trkpt lat="48.70418" lon="2.00924">
        <ele>96</ele>
        <time>2016-03-28T09:44:10Z</time>
      </trkpt>
      <trkpt lat="48.70419" lon="2.00917">
        <ele>96</ele>
        <time>2016-03-28T09:44:16Z</time>
      </trkpt>
      <trkpt lat="48.70419" lon="2.0091">
        <ele>96</ele>
        <time>2016-03-28T09:44:21Z</time>
      </trkpt>
      <trkpt lat="48.70422" lon="2.00895">
        <ele>95</ele>
        <time>2016-03-28T09:44:31Z</time>
      </trkpt>
      <trkpt lat="48.70417" lon="2.00891">
        <ele>95</ele>
        <time>2016-03-28T09:44:35Z</time>
      </trkpt>
      <trkpt lat="48.70405" lon="2.0089">
        <ele>93</ele>
        <time>2016-03-28T09:44:44Z</time>
      </trkpt>
      <trkpt lat="48.70401" lon="2.00885">
        <ele>92</ele>
        <time>2016-03-28T09:45:18Z</time>
      </trkpt>
      <trkpt lat="48.70396" lon="2.00886">
        <ele>92</ele>
        <time>2016-03-28T09:45:23Z</time>
      </trkpt>
      <trkpt lat="48.70386" lon="2.00887">
        <ele>90</ele>
        <time>2016-03-28T09:46:06Z</time>
      </trkpt>
      <trkpt lat="48.70376" lon="2.00885">
        <ele>89</ele>
        <time>2016-03-28T09:46:15Z</time>
      </trkpt>
      <trkpt lat="48.70375" lon="2.00892">
        <ele>88</ele>
        <time>2016-03-28T09:46:21Z</time>
      </trkpt>
      <trkpt lat="48.70374" lon="2.00899">
        <ele>88</ele>
        <time>2016-03-28T09:46:25Z</time>
      </trkpt>
      <trkpt lat="48.70368" lon="2.00904">
        <ele>87</ele>
        <time>2016-03-28T09:46:54Z</time>
      </trkpt>
      <trkpt lat="48.70406" lon="2.00889">
        <ele>96</ele>
        <time>2016-03-28T11:31:06Z</time>
      </trkpt>
      <trkpt lat="48.7041" lon="2.00897">
        <ele>96</ele>
        <time>2016-03-28T11:31:16Z</time>
      </trkpt>
      <trkpt lat="48.70409" lon="2.00904">
        <ele>96</ele>
        <time>2016-03-28T11:31:20Z</time>
      </trkpt>
      <trkpt lat="48.70408" lon="2.00917">
        <ele>98</ele>
        <time>2016-03-28T11:31:30Z</time>
      </trkpt>
      <trkpt lat="48.7041" lon="2.00924">
        <ele>98</ele>
        <time>2016-03-28T11:31:38Z</time>
      </trkpt>
      <trkpt lat="48.70409" lon="2.00932">
        <ele>98</ele>
        <time>2016-03-28T11:31:43Z</time>
      </trkpt>
      <trkpt lat="48.70411" lon="2.00938">
        <ele>98</ele>
        <time>2016-03-28T11:31:50Z</time>
      </trkpt>
      <trkpt lat="48.70412" lon="2.00945">
        <ele>99</ele>
        <time>2016-03-28T11:31:58Z</time>
      </trkpt>
      <trkpt lat="48.70411" lon="2.00953">
        <ele>98</ele>
        <time>2016-03-28T11:32:03Z</time>
      </trkpt>
      <trkpt lat="48.70411" lon="2.0096">
        <ele>97</ele>
        <time>2016-03-28T11:32:09Z</time>
      </trkpt>
      <trkpt lat="48.70411" lon="2.01011">
        <ele>95</ele>
        <time>2016-03-28T11:32:39Z</time>
      </trkpt>
      <trkpt lat="48.70407" lon="2.01041">
        <ele>95</ele>
        <time>2016-03-28T11:32:57Z</time>
      </trkpt>
      <trkpt lat="48.70405" lon="2.01049">
        <ele>94</ele>
        <time>2016-03-28T11:33:02Z</time>
      </trkpt>
      <trkpt lat="48.70404" lon="2.01056">
        <ele>94</ele>
        <time>2016-03-28T11:33:06Z</time>
      </trkpt>
      <trkpt lat="48.70406" lon="2.01079">
        <ele>95</ele>
        <time>2016-03-28T11:33:22Z</time>
      </trkpt>
      <trkpt lat="48.704" lon="2.01095">
        <ele>95</ele>
        <time>2016-03-28T11:33:30Z</time>
      </trkpt>
      <trkpt lat="48.704" lon="2.01103">
        <ele>95</ele>
        <time>2016-03-28T11:33:34Z</time>
      </trkpt>
      <trkpt lat="48.70401" lon="2.01109">
        <ele>95</ele>
        <time>2016-03-28T11:33:38Z</time>
      </trkpt>
      <trkpt lat="48.70403" lon="2.01116">
        <ele>95</ele>
        <time>2016-03-28T11:33:45Z</time>
      </trkpt>
      <trkpt lat="48.70406" lon="2.01124">
        <ele>96</ele>
        <time>2016-03-28T11:33:52Z</time>
      </trkpt>
      <trkpt lat="48.70408" lon="2.01131">
        <ele>96</ele>
        <time>2016-03-28T11:33:57Z</time>
      </trkpt>
      <trkpt lat="48.70407" lon="2.01154">
        <ele>96</ele>
        <time>2016-03-28T11:34:11Z</time>
      </trkpt>
      <trkpt lat="48.70407" lon="2.01168">
        <ele>96</ele>
        <time>2016-03-28T11:34:19Z</time>
      </trkpt>
      <trkpt lat="48.70406" lon="2.01173">
        <ele>97</ele>
        <time>2016-03-28T11:34:27Z</time>
      </trkpt>
      <trkpt lat="48.70406" lon="2.0118">
        <ele>97</ele>
        <time>2016-03-28T11:34:29Z</time>
      </trkpt>
      <trkpt lat="48.70406" lon="2.01188">
        <ele>97</ele>
        <time>2016-03-28T11:34:33Z</time>
      </trkpt>
      <trkpt lat="48.70407" lon="2.0122">
        <ele>97</ele>
        <time>2016-03-28T11:34:47Z</time>
      </trkpt>
      <trkpt lat="48.70404" lon="2.01234">
        <ele>97</ele>
        <time>2016-03-28T11:34:58Z</time>
      </trkpt>
      <trkpt lat="48.70399" lon="2.01253">
        <ele>97</ele>
        <time>2016-03-28T11:35:14Z</time>
      </trkpt>
      <trkpt lat="48.70403" lon="2.01255">
        <ele>98</ele>
        <time>2016-03-28T11:35:45Z</time>
      </trkpt>
      <trkpt lat="48.70407" lon="2.01251">
        <ele>98</ele>
        <time>2016-03-28T11:35:54Z</time>
      </trkpt>
      <trkpt lat="48.70422" lon="2.01236">
        <ele>100</ele>
        <time>2016-03-28T11:36:10Z</time>
      </trkpt>
      <trkpt lat="48.70421" lon="2.0123">
        <ele>101</ele>
        <time>2016-03-28T11:36:21Z</time>
      </trkpt>
      <trkpt lat="48.70428" lon="2.01218">
        <ele>102</ele>
        <time>2016-03-28T11:36:36Z</time>
      </trkpt>
      <trkpt lat="48.70431" lon="2.01201">
        <ele>103</ele>
        <time>2016-03-28T11:36:45Z</time>
      </trkpt>
      <trkpt lat="48.70433" lon="2.01198">
        <ele>103</ele>
        <time>2016-03-28T11:36:52Z</time>
      </trkpt>
      <trkpt lat="48.70435" lon="2.01183">
        <ele>103</ele>
        <time>2016-03-28T11:37:00Z</time>
      </trkpt>
      <trkpt lat="48.70437" lon="2.01169">
        <ele>104</ele>
        <time>2016-03-28T11:37:10Z</time>
      </trkpt>
      <trkpt lat="48.70437" lon="2.0116">
        <ele>107</ele>
        <time>2016-03-28T11:37:42Z</time>
      </trkpt>
      <trkpt lat="48.70441" lon="2.01154">
        <ele>108</ele>
        <time>2016-03-28T11:37:50Z</time>
      </trkpt>
      <trkpt lat="48.70446" lon="2.01148">
        <ele>110</ele>
        <time>2016-03-28T11:37:59Z</time>
      </trkpt>
      <trkpt lat="48.70454" lon="2.01144">
        <ele>112</ele>
        <time>2016-03-28T11:38:10Z</time>
      </trkpt>
      <trkpt lat="48.70458" lon="2.01138">
        <ele>112</ele>
        <time>2016-03-28T11:38:14Z</time>
      </trkpt>
      <trkpt lat="48.70462" lon="2.01134">
        <ele>112</ele>
        <time>2016-03-28T11:38:17Z</time>
      </trkpt>
      <trkpt lat="48.70473" lon="2.01127">
        <ele>114</ele>
        <time>2016-03-28T11:38:34Z</time>
      </trkpt>
      <trkpt lat="48.70479" lon="2.01122">
        <ele>115</ele>
        <time>2016-03-28T11:38:48Z</time>
      </trkpt>
      <trkpt lat="48.70483" lon="2.01114">
        <ele>117</ele>
        <time>2016-03-28T11:39:04Z</time>
      </trkpt>
      <trkpt lat="48.70488" lon="2.0111">
        <ele>118</ele>
        <time>2016-03-28T11:39:07Z</time>
      </trkpt>
      <trkpt lat="48.70504" lon="2.01105">
        <ele>122</ele>
        <time>2016-03-28T11:39:29Z</time>
      </trkpt>
      <trkpt lat="48.70514" lon="2.01108">
        <ele>123</ele>
        <time>2016-03-28T11:39:36Z</time>
      </trkpt>
      <trkpt lat="48.70547" lon="2.01085">
        <ele>129</ele>
        <time>2016-03-28T11:40:23Z</time>
      </trkpt>
      <trkpt lat="48.7055" lon="2.01085">
        <ele>131</ele>
        <time>2016-03-28T11:40:30Z</time>
      </trkpt>
      <trkpt lat="48.70554" lon="2.01081">
        <ele>134</ele>
        <time>2016-03-28T11:40:44Z</time>
      </trkpt>
      <trkpt lat="48.70559" lon="2.01083">
        <ele>134</ele>
        <time>2016-03-28T11:40:46Z</time>
      </trkpt>
      <trkpt lat="48.70571" lon="2.01084">
        <ele>139</ele>
        <time>2016-03-28T11:41:18Z</time>
      </trkpt>
      <trkpt lat="48.70599" lon="2.01089">
        <ele>145</ele>
        <time>2016-03-28T11:41:52Z</time>
      </trkpt>
      <trkpt lat="48.70603" lon="2.01083">
        <ele>147</ele>
        <time>2016-03-28T11:42:01Z</time>
      </trkpt>
      <trkpt lat="48.70604" lon="2.01066">
        <ele>149</ele>
        <time>2016-03-28T11:42:15Z</time>
      </trkpt>
      <trkpt lat="48.70602" lon="2.0106">
        <ele>150</ele>
        <time>2016-03-28T11:42:20Z</time>
      </trkpt>
      <trkpt lat="48.70603" lon="2.01054">
        <ele>153</ele>
        <time>2016-03-28T11:42:46Z</time>
      </trkpt>
      <trkpt lat="48.70606" lon="2.01053">
        <ele>154</ele>
        <time>2016-03-28T11:42:53Z</time>
      </trkpt>
      <trkpt lat="48.70618" lon="2.01051">
        <ele>158</ele>
        <time>2016-03-28T11:43:08Z</time>
      </trkpt>
      <trkpt lat="48.7062" lon="2.01043">
        <ele>159</ele>
        <time>2016-03-28T11:43:16Z</time>
      </trkpt>
      <trkpt lat="48.70619" lon="2.0104">
        <ele>159</ele>
        <time>2016-03-28T11:43:17Z</time>
      </trkpt>
      <trkpt lat="48.7063" lon="2.01038">
        <ele>160</ele>
        <time>2016-03-28T11:43:24Z</time>
      </trkpt>
      <trkpt lat="48.70635" lon="2.01036">
        <ele>160</ele>
        <time>2016-03-28T11:43:27Z</time>
      </trkpt>
      <trkpt lat="48.70639" lon="2.01035">
        <ele>161</ele>
        <time>2016-03-28T11:43:36Z</time>
      </trkpt>
      <trkpt lat="48.70643" lon="2.01034">
        <ele>161</ele>
        <time>2016-03-28T11:43:37Z</time>
      </trkpt>
      <trkpt lat="48.70645" lon="2.01032">
        <ele>161</ele>
        <time>2016-03-28T11:44:28Z</time>
      </trkpt>
      <trkpt lat="48.70647" lon="2.01025">
        <ele>161</ele>
        <time>2016-03-28T11:44:45Z</time>
      </trkpt>
      <trkpt lat="48.70651" lon="2.0103">
        <ele>161</ele>
        <time>2016-03-28T11:44:54Z</time>
      </trkpt>
      <trkpt lat="48.70657" lon="2.01032">
        <ele>162</ele>
        <time>2016-03-28T11:45:00Z</time>
      </trkpt>
      <trkpt lat="48.70667" lon="2.01029">
        <ele>163</ele>
        <time>2016-03-28T11:45:11Z</time>
      </trkpt>
      <trkpt lat="48.70667" lon="2.01022">
        <ele>163</ele>
        <time>2016-03-28T11:45:16Z</time>
      </trkpt>
      <trkpt lat="48.70669" lon="2.01014">
        <ele>163</ele>
        <time>2016-03-28T11:45:24Z</time>
      </trkpt>
      <trkpt lat="48.70672" lon="2.01008">
        <ele>163</ele>
        <time>2016-03-28T11:45:27Z</time>
      </trkpt>
      <trkpt lat="48.70679" lon="2.01001">
        <ele>163</ele>
        <time>2016-03-28T11:45:43Z</time>
      </trkpt>
      <trkpt lat="48.70675" lon="2.00999">
        <ele>163</ele>
        <time>2016-03-28T11:47:59Z</time>
      </trkpt>
      <trkpt lat="48.70671" lon="2.01001">
        <ele>161</ele>
        <time>2016-03-28T11:48:08Z</time>
      </trkpt>
      <trkpt lat="48.70667" lon="2.00999">
        <ele>161</ele>
        <time>2016-03-28T11:48:10Z</time>
      </trkpt>
      <trkpt lat="48.70653" lon="2.00977">
        <ele>160</ele>
        <time>2016-03-28T11:48:28Z</time>
      </trkpt>
      <trkpt lat="48.70649" lon="2.00975">
        <ele>160</ele>
        <time>2016-03-28T11:48:32Z</time>
      </trkpt>
      <trkpt lat="48.70647" lon="2.00968">
        <ele>160</ele>
        <time>2016-03-28T11:48:41Z</time>
      </trkpt>
      <trkpt lat="48.70643" lon="2.00963">
        <ele>159</ele>
        <time>2016-03-28T11:48:52Z</time>
      </trkpt>
      <trkpt lat="48.70634" lon="2.00964">
        <ele>159</ele>
        <time>2016-03-28T11:49:01Z</time>
      </trkpt>
      <trkpt lat="48.70629" lon="2.00958">
        <ele>158</ele>
        <time>2016-03-28T11:49:13Z</time>
      </trkpt>
      <trkpt lat="48.70626" lon="2.00954">
        <ele>157</ele>
        <time>2016-03-28T11:49:23Z</time>
      </trkpt>
      <trkpt lat="48.70625" lon="2.0095">
        <ele>156</ele>
        <time>2016-03-28T11:49:41Z</time>
      </trkpt>
      <trkpt lat="48.70622" lon="2.00945">
        <ele>156</ele>
        <time>2016-03-28T11:49:49Z</time>
      </trkpt>
      <trkpt lat="48.70623" lon="2.00935">
        <ele>156</ele>
        <time>2016-03-28T11:50:23Z</time>
      </trkpt>
      <trkpt lat="48.70625" lon="2.00931">
        <ele>156</ele>
        <time>2016-03-28T11:50:44Z</time>
      </trkpt>
      <trkpt lat="48.70625" lon="2.00924">
        <ele>156</ele>
        <time>2016-03-28T11:50:46Z</time>
      </trkpt>
      <trkpt lat="48.70626" lon="2.00917">
        <ele>156</ele>
        <time>2016-03-28T11:51:01Z</time>
      </trkpt>
      <trkpt lat="48.70628" lon="2.0091">
        <ele>156</ele>
        <time>2016-03-28T11:51:05Z</time>
      </trkpt>
      <trkpt lat="48.70629" lon="2.00902">
        <ele>156</ele>
        <time>2016-03-28T11:51:13Z</time>
      </trkpt>
      <trkpt lat="48.70634" lon="2.00891">
        <ele>157</ele>
        <time>2016-03-28T11:51:23Z</time>
      </trkpt>
      <trkpt lat="48.70641" lon="2.00861">
        <ele>158</ele>
        <time>2016-03-28T11:51:44Z</time>
      </trkpt>
      <trkpt lat="48.70647" lon="2.00818">
        <ele>158</ele>
        <time>2016-03-28T11:52:16Z</time>
      </trkpt>
      <trkpt lat="48.70657" lon="2.00777">
        <ele>161</ele>
        <time>2016-03-28T11:52:52Z</time>
      </trkpt>
      <trkpt lat="48.70662" lon="2.0076">
        <ele>162</ele>
        <time>2016-03-28T11:53:08Z</time>
      </trkpt>
      <trkpt lat="48.70669" lon="2.00748">
        <ele>162</ele>
        <time>2016-03-28T11:53:18Z</time>
      </trkpt>
      <trkpt lat="48.70672" lon="2.00735">
        <ele>162</ele>
        <time>2016-03-28T11:53:29Z</time>
      </trkpt>
      <trkpt lat="48.70679" lon="2.00693">
        <ele>163</ele>
        <time>2016-03-28T11:53:55Z</time>
      </trkpt>
      <trkpt lat="48.70699" lon="2.0066">
        <ele>163</ele>
        <time>2016-03-28T11:54:26Z</time>
      </trkpt>
      <trkpt lat="48.70703" lon="2.00642">
        <ele>163</ele>
        <time>2016-03-28T11:54:44Z</time>
      </trkpt>
      <trkpt lat="48.70728" lon="2.00601">
        <ele>163</ele>
        <time>2016-03-28T11:55:18Z</time>
      </trkpt>
      <trkpt lat="48.70735" lon="2.00592">
        <ele>163</ele>
        <time>2016-03-28T11:55:26Z</time>
      </trkpt>
      <trkpt lat="48.70736" lon="2.00583">
        <ele>163</ele>
        <time>2016-03-28T11:55:33Z</time>
      </trkpt>
      <trkpt lat="48.70732" lon="2.00577">
        <ele>162</ele>
        <time>2016-03-28T11:55:38Z</time>
      </trkpt>
      <trkpt lat="48.70728" lon="2.00571">
        <ele>161</ele>
        <time>2016-03-28T11:55:43Z</time>
      </trkpt>
      <trkpt lat="48.70729" lon="2.00564">
        <ele>160</ele>
        <time>2016-03-28T11:55:52Z</time>
      </trkpt>
      <trkpt lat="48.70732" lon="2.0056">
        <ele>159</ele>
        <time>2016-03-28T11:56:04Z</time>
      </trkpt>
      <trkpt lat="48.70745" lon="2.00539">
        <ele>158</ele>
        <time>2016-03-28T11:56:20Z</time>
      </trkpt>
      <trkpt lat="48.70751" lon="2.00513">
        <ele>158</ele>
        <time>2016-03-28T11:56:34Z</time>
      </trkpt>
      <trkpt lat="48.70742" lon="2.00504">
        <ele>158</ele>
        <time>2016-03-28T11:56:49Z</time>
      </trkpt>
      <trkpt lat="48.70731" lon="2.00472">
        <ele>156</ele>
        <time>2016-03-28T11:57:13Z</time>
      </trkpt>
      <trkpt lat="48.70732" lon="2.00462">
        <ele>156</ele>
        <time>2016-03-28T11:57:21Z</time>
      </trkpt>
      <trkpt lat="48.70733" lon="2.00454">
        <ele>156</ele>
        <time>2016-03-28T11:57:26Z</time>
      </trkpt>
      <trkpt lat="48.70735" lon="2.00447">
        <ele>156</ele>
        <time>2016-03-28T11:57:30Z</time>
      </trkpt>
      <trkpt lat="48.70736" lon="2.0044">
        <ele>156</ele>
        <time>2016-03-28T11:57:36Z</time>
      </trkpt>
      <trkpt lat="48.70737" lon="2.00432">
        <ele>156</ele>
        <time>2016-03-28T11:57:41Z</time>
      </trkpt>
      <trkpt lat="48.70738" lon="2.00425">
        <ele>156</ele>
        <time>2016-03-28T11:57:46Z</time>
      </trkpt>
      <trkpt lat="48.70738" lon="2.0041">
        <ele>157</ele>
        <time>2016-03-28T11:57:54Z</time>
      </trkpt>
      <trkpt lat="48.70748" lon="2.00389">
        <ele>157</ele>
        <time>2016-03-28T11:58:08Z</time>
      </trkpt>
      <trkpt lat="48.70754" lon="2.00375">
        <ele>158</ele>
        <time>2016-03-28T11:58:26Z</time>
      </trkpt>
      <trkpt lat="48.70767" lon="2.00366">
        <ele>160</ele>
        <time>2016-03-28T11:58:44Z</time>
      </trkpt>
      <trkpt lat="48.70778" lon="2.00352">
        <ele>160</ele>
        <time>2016-03-28T11:59:00Z</time>
      </trkpt>
      <trkpt lat="48.7078" lon="2.00346">
        <ele>159</ele>
        <time>2016-03-28T11:59:06Z</time>
      </trkpt>
      <trkpt lat="48.70779" lon="2.00337">
        <ele>160</ele>
        <time>2016-03-28T11:59:09Z</time>
      </trkpt>
      <trkpt lat="48.7078" lon="2.00334">
        <ele>160</ele>
        <time>2016-03-28T11:59:15Z</time>
      </trkpt>
      <trkpt lat="48.70784" lon="2.00329">
        <ele>159</ele>
        <time>2016-03-28T11:59:24Z</time>
      </trkpt>
      <trkpt lat="48.708" lon="2.00294">
        <ele>160</ele>
        <time>2016-03-28T11:59:46Z</time>
      </trkpt>
      <trkpt lat="48.70798" lon="2.00279">
        <ele>159</ele>
        <time>2016-03-28T11:59:57Z</time>
      </trkpt>
      <trkpt lat="48.70791" lon="2.0027">
        <ele>159</ele>
        <time>2016-03-28T12:00:08Z</time>
      </trkpt>
      <trkpt lat="48.70793" lon="2.00255">
        <ele>159</ele>
        <time>2016-03-28T12:00:14Z</time>
      </trkpt>
      <trkpt lat="48.70795" lon="2.00242">
        <ele>159</ele>
        <time>2016-03-28T12:00:21Z</time>
      </trkpt>
      <trkpt lat="48.70793" lon="2.00227">
        <ele>159</ele>
        <time>2016-03-28T12:00:30Z</time>
      </trkpt>
      <trkpt lat="48.70787" lon="2.00217">
        <ele>159</ele>
        <time>2016-03-28T12:00:42Z</time>
      </trkpt>
      <trkpt lat="48.70778" lon="2.0021">
        <ele>158</ele>
        <time>2016-03-28T12:00:56Z</time>
      </trkpt>
      <trkpt lat="48.70772" lon="2.00199">
        <ele>158</ele>
        <time>2016-03-28T12:01:04Z</time>
      </trkpt>
      <trkpt lat="48.70763" lon="2.00195">
        <ele>157</ele>
        <time>2016-03-28T12:01:17Z</time>
      </trkpt>
      <trkpt lat="48.70754" lon="2.00199">
        <ele>156</ele>
        <time>2016-03-28T12:01:31Z</time>
      </trkpt>
      <trkpt lat="48.70744" lon="2.00198">
        <ele>155</ele>
        <time>2016-03-28T12:01:43Z</time>
      </trkpt>
      <trkpt lat="48.70722" lon="2.00185">
        <ele>151</ele>
        <time>2016-03-28T12:02:08Z</time>
      </trkpt>
      <trkpt lat="48.70711" lon="2.00159">
        <ele>146</ele>
        <time>2016-03-28T12:02:21Z</time>
      </trkpt>
      <trkpt lat="48.7071" lon="2.00151">
        <ele>145</ele>
        <time>2016-03-28T12:02:27Z</time>
      </trkpt>
      <trkpt lat="48.70712" lon="2.00144">
        <ele>144</ele>
        <time>2016-03-28T12:02:31Z</time>
      </trkpt>
      <trkpt lat="48.7071" lon="2.00137">
        <ele>143</ele>
        <time>2016-03-28T12:02:36Z</time>
      </trkpt>
      <trkpt lat="48.70711" lon="2.00133">
        <ele>143</ele>
        <time>2016-03-28T12:02:54Z</time>
      </trkpt>
      <trkpt lat="48.70722" lon="2.00118">
        <ele>141</ele>
        <time>2016-03-28T12:03:08Z</time>
      </trkpt>
      <trkpt lat="48.7073" lon="2.00077">
        <ele>139</ele>
        <time>2016-03-28T12:03:39Z</time>
      </trkpt>
      <trkpt lat="48.70738" lon="2.00068">
        <ele>137</ele>
        <time>2016-03-28T12:03:49Z</time>
      </trkpt>
      <trkpt lat="48.70741" lon="2.00055">
        <ele>137</ele>
        <time>2016-03-28T12:04:00Z</time>
      </trkpt>
      <trkpt lat="48.70748" lon="2.00045">
        <ele>135</ele>
        <time>2016-03-28T12:04:10Z</time>
      </trkpt>
      <trkpt lat="48.70753" lon="2.00036">
        <ele>134</ele>
        <time>2016-03-28T12:04:18Z</time>
      </trkpt>
      <trkpt lat="48.70755" lon="2.00023">
        <ele>133</ele>
        <time>2016-03-28T12:04:43Z</time>
      </trkpt>
      <trkpt lat="48.70757" lon="1.99993">
        <ele>131</ele>
        <time>2016-03-28T12:05:04Z</time>
      </trkpt>
      <trkpt lat="48.7077" lon="1.99968">
        <ele>130</ele>
        <time>2016-03-28T12:05:17Z</time>
      </trkpt>
      <trkpt lat="48.70764" lon="1.99952">
        <ele>127</ele>
        <time>2016-03-28T12:05:35Z</time>
      </trkpt>
      <trkpt lat="48.70756" lon="1.99895">
        <ele>121</ele>
        <time>2016-03-28T12:06:23Z</time>
      </trkpt>
      <trkpt lat="48.70756" lon="1.99888">
        <ele>121</ele>
        <time>2016-03-28T12:06:24Z</time>
      </trkpt>
      <trkpt lat="48.70758" lon="1.99882">
        <ele>120</ele>
        <time>2016-03-28T12:06:28Z</time>
      </trkpt>
      <trkpt lat="48.70758" lon="1.99854">
        <ele>116</ele>
        <time>2016-03-28T12:07:01Z</time>
      </trkpt>
      <trkpt lat="48.7076" lon="1.99847">
        <ele>116</ele>
        <time>2016-03-28T12:07:05Z</time>
      </trkpt>
      <trkpt lat="48.7076" lon="1.99839">
        <ele>115</ele>
        <time>2016-03-28T12:07:10Z</time>
      </trkpt>
      <trkpt lat="48.70757" lon="1.99838">
        <ele>115</ele>
        <time>2016-03-28T12:07:11Z</time>
      </trkpt>
      <trkpt lat="48.70754" lon="1.99821">
        <ele>114</ele>
        <time>2016-03-28T12:07:21Z</time>
      </trkpt>
      <trkpt lat="48.70755" lon="1.99813">
        <ele>113</ele>
        <time>2016-03-28T12:07:26Z</time>
      </trkpt>
      <trkpt lat="48.70752" lon="1.99806">
        <ele>112</ele>
        <time>2016-03-28T12:07:32Z</time>
      </trkpt>
      <trkpt lat="48.70748" lon="1.99783">
        <ele>109</ele>
        <time>2016-03-28T12:07:53Z</time>
      </trkpt>
      <trkpt lat="48.70744" lon="1.99778">
        <ele>108</ele>
        <time>2016-03-28T12:08:00Z</time>
      </trkpt>
      <trkpt lat="48.70732" lon="1.99746">
        <ele>104</ele>
        <time>2016-03-28T12:08:24Z</time>
      </trkpt>
      <trkpt lat="48.70733" lon="1.99739">
        <ele>104</ele>
        <time>2016-03-28T12:08:28Z</time>
      </trkpt>
      <trkpt lat="48.70731" lon="1.99726">
        <ele>103</ele>
        <time>2016-03-28T12:08:34Z</time>
      </trkpt>
      <trkpt lat="48.7073" lon="1.99721">
        <ele>102</ele>
        <time>2016-03-28T12:08:36Z</time>
      </trkpt>
      <trkpt lat="48.70726" lon="1.99718">
        <ele>102</ele>
        <time>2016-03-28T12:08:43Z</time>
      </trkpt>
      <trkpt lat="48.70724" lon="1.9971">
        <ele>102</ele>
        <time>2016-03-28T12:08:48Z</time>
      </trkpt>
      <trkpt lat="48.70723" lon="1.99703">
        <ele>103</ele>
        <time>2016-03-28T12:08:55Z</time>
      </trkpt>
      <trkpt lat="48.70726" lon="1.9968">
        <ele>103</ele>
        <time>2016-03-28T12:09:07Z</time>
      </trkpt>
      <trkpt lat="48.70728" lon="1.9964">
        <ele>101</ele>
        <time>2016-03-28T12:09:25Z</time>
      </trkpt>
      <trkpt lat="48.70727" lon="1.99624">
        <ele>101</ele>
        <time>2016-03-28T12:09:30Z</time>
      </trkpt>
      <trkpt lat="48.70728" lon="1.99608">
        <ele>99</ele>
        <time>2016-03-28T12:09:40Z</time>
      </trkpt>
      <trkpt lat="48.70723" lon="1.99593">
        <ele>99</ele>
        <time>2016-03-28T12:09:49Z</time>
      </trkpt>
      <trkpt lat="48.70721" lon="1.99587">
        <ele>99</ele>
        <time>2016-03-28T12:09:54Z</time>
      </trkpt>
      <trkpt lat="48.70722" lon="1.99571">
        <ele>99</ele>
        <time>2016-03-28T12:10:02Z</time>
      </trkpt>
      <trkpt lat="48.70723" lon="1.99564">
        <ele>99</ele>
        <time>2016-03-28T12:10:07Z</time>
      </trkpt>
      <trkpt lat="48.7072" lon="1.99511">
        <ele>95</ele>
        <time>2016-03-28T12:10:40Z</time>
      </trkpt>
      <trkpt lat="48.70717" lon="1.99504">
        <ele>94</ele>
        <time>2016-03-28T12:10:55Z</time>
      </trkpt>
      <trkpt lat="48.70714" lon="1.99498">
        <ele>94</ele>
        <time>2016-03-28T12:10:59Z</time>
      </trkpt>
      <trkpt lat="48.70714" lon="1.99489">
        <ele>93</ele>
        <time>2016-03-28T12:11:04Z</time>
      </trkpt>
      <trkpt lat="48.70711" lon="1.99484">
        <ele>93</ele>
        <time>2016-03-28T12:11:08Z</time>
      </trkpt>
      <trkpt lat="48.70706" lon="1.99473">
        <ele>92</ele>
        <time>2016-03-28T12:11:14Z</time>
      </trkpt>
      <trkpt lat="48.70705" lon="1.99466">
        <ele>91</ele>
        <time>2016-03-28T12:11:18Z</time>
      </trkpt>
      <trkpt lat="48.70706" lon="1.99458">
        <ele>91</ele>
        <time>2016-03-28T12:11:22Z</time>
      </trkpt>
      <trkpt lat="48.70711" lon="1.99447">
        <ele>90</ele>
        <time>2016-03-28T12:11:31Z</time>
      </trkpt>
      <trkpt lat="48.70715" lon="1.99413">
        <ele>92</ele>
        <time>2016-03-28T12:11:54Z</time>
      </trkpt>
      <trkpt lat="48.70713" lon="1.99398">
        <ele>92</ele>
        <time>2016-03-28T12:12:01Z</time>
      </trkpt>
      <trkpt lat="48.70715" lon="1.99392">
        <ele>92</ele>
        <time>2016-03-28T12:12:06Z</time>
      </trkpt>
      <trkpt lat="48.70713" lon="1.99385">
        <ele>91</ele>
        <time>2016-03-28T12:12:11Z</time>
      </trkpt>
      <trkpt lat="48.70707" lon="1.99362">
        <ele>91</ele>
        <time>2016-03-28T12:12:24Z</time>
      </trkpt>
      <trkpt lat="48.70709" lon="1.99347">
        <ele>90</ele>
        <time>2016-03-28T12:12:32Z</time>
      </trkpt>
      <trkpt lat="48.70707" lon="1.99339">
        <ele>91</ele>
        <time>2016-03-28T12:12:37Z</time>
      </trkpt>
      <trkpt lat="48.70704" lon="1.99289">
        <ele>89</ele>
        <time>2016-03-28T12:13:03Z</time>
      </trkpt>
      <trkpt lat="48.70703" lon="1.99275">
        <ele>89</ele>
        <time>2016-03-28T12:13:11Z</time>
      </trkpt>
      <trkpt lat="48.70703" lon="1.99268">
        <ele>89</ele>
        <time>2016-03-28T12:13:15Z</time>
      </trkpt>
      <trkpt lat="48.70704" lon="1.99253">
        <ele>90</ele>
        <time>2016-03-28T12:13:23Z</time>
      </trkpt>
      <trkpt lat="48.70704" lon="1.99244">
        <ele>90</ele>
        <time>2016-03-28T12:13:27Z</time>
      </trkpt>
      <trkpt lat="48.70704" lon="1.99236">
        <ele>89</ele>
        <time>2016-03-28T12:13:30Z</time>
      </trkpt>
      <trkpt lat="48.70703" lon="1.9923">
        <ele>89</ele>
        <time>2016-03-28T12:13:33Z</time>
      </trkpt>
      <trkpt lat="48.70703" lon="1.99218">
        <ele>89</ele>
        <time>2016-03-28T12:13:37Z</time>
      </trkpt>
      <trkpt lat="48.70703" lon="1.99213">
        <ele>88</ele>
        <time>2016-03-28T12:13:39Z</time>
      </trkpt>
      <trkpt lat="48.70702" lon="1.99197">
        <ele>88</ele>
        <time>2016-03-28T12:13:47Z</time>
      </trkpt>
      <trkpt lat="48.70702" lon="1.99134">
        <ele>88</ele>
        <time>2016-03-28T12:14:19Z</time>
      </trkpt>
      <trkpt lat="48.70702" lon="1.99118">
        <ele>88</ele>
        <time>2016-03-28T12:14:27Z</time>
      </trkpt>
      <trkpt lat="48.70701" lon="1.99088">
        <ele>88</ele>
        <time>2016-03-28T12:14:43Z</time>
      </trkpt>
      <trkpt lat="48.70702" lon="1.99081">
        <ele>88</ele>
        <time>2016-03-28T12:14:47Z</time>
      </trkpt>
      <trkpt lat="48.70701" lon="1.99059">
        <ele>88</ele>
        <time>2016-03-28T12:14:59Z</time>
      </trkpt>
      <trkpt lat="48.70699" lon="1.99044">
        <ele>88</ele>
        <time>2016-03-28T12:15:06Z</time>
      </trkpt>
      <trkpt lat="48.70697" lon="1.99037">
        <ele>89</ele>
        <time>2016-03-28T12:15:10Z</time>
      </trkpt>
      <trkpt lat="48.707" lon="1.99008">
        <ele>91</ele>
        <time>2016-03-28T12:15:26Z</time>
      </trkpt>
      <trkpt lat="48.70701" lon="1.99">
        <ele>90</ele>
        <time>2016-03-28T12:15:30Z</time>
      </trkpt>
      <trkpt lat="48.70698" lon="1.98994">
        <ele>91</ele>
        <time>2016-03-28T12:15:34Z</time>
      </trkpt>
      <trkpt lat="48.70698" lon="1.98962">
        <ele>92</ele>
        <time>2016-03-28T12:15:46Z</time>
      </trkpt>
      <trkpt lat="48.70695" lon="1.98956">
        <ele>92</ele>
        <time>2016-03-28T12:15:51Z</time>
      </trkpt>
      <trkpt lat="48.70696" lon="1.98948">
        <ele>93</ele>
        <time>2016-03-28T12:15:56Z</time>
      </trkpt>
      <trkpt lat="48.70684" lon="1.9892">
        <ele>93</ele>
        <time>2016-03-28T12:16:14Z</time>
      </trkpt>
      <trkpt lat="48.70674" lon="1.98888">
        <ele>95</ele>
        <time>2016-03-28T12:16:32Z</time>
      </trkpt>
      <trkpt lat="48.70673" lon="1.98881">
        <ele>95</ele>
        <time>2016-03-28T12:16:39Z</time>
      </trkpt>
      <trkpt lat="48.70666" lon="1.98861">
        <ele>96</ele>
        <time>2016-03-28T12:16:51Z</time>
      </trkpt>
      <trkpt lat="48.70666" lon="1.98853">
        <ele>96</ele>
        <time>2016-03-28T12:16:55Z</time>
      </trkpt>
      <trkpt lat="48.70664" lon="1.98847">
        <ele>96</ele>
        <time>2016-03-28T12:16:58Z</time>
      </trkpt>
      <trkpt lat="48.70657" lon="1.98833">
        <ele>97</ele>
        <time>2016-03-28T12:17:05Z</time>
      </trkpt>
      <trkpt lat="48.70652" lon="1.98819">
        <ele>97</ele>
        <time>2016-03-28T12:17:14Z</time>
      </trkpt>
      <trkpt lat="48.7065" lon="1.98812">
        <ele>97</ele>
        <time>2016-03-28T12:17:18Z</time>
      </trkpt>
      <trkpt lat="48.70623" lon="1.98751">
        <ele>98</ele>
        <time>2016-03-28T12:17:53Z</time>
      </trkpt>
      <trkpt lat="48.70619" lon="1.98745">
        <ele>98</ele>
        <time>2016-03-28T12:17:56Z</time>
      </trkpt>
      <trkpt lat="48.706" lon="1.98711">
        <ele>97</ele>
        <time>2016-03-28T12:18:20Z</time>
      </trkpt>
      <trkpt lat="48.70597" lon="1.98706">
        <ele>97</ele>
        <time>2016-03-28T12:18:26Z</time>
      </trkpt>
      <trkpt lat="48.70593" lon="1.987">
        <ele>98</ele>
        <time>2016-03-28T12:18:30Z</time>
      </trkpt>
      <trkpt lat="48.70589" lon="1.98694">
        <ele>98</ele>
        <time>2016-03-28T12:18:34Z</time>
      </trkpt>
      <trkpt lat="48.70573" lon="1.98666">
        <ele>96</ele>
        <time>2016-03-28T12:18:53Z</time>
      </trkpt>
      <trkpt lat="48.70564" lon="1.98647">
        <ele>96</ele>
        <time>2016-03-28T12:19:06Z</time>
      </trkpt>
      <trkpt lat="48.70535" lon="1.98624">
        <ele>98</ele>
        <time>2016-03-28T12:19:36Z</time>
      </trkpt>
      <trkpt lat="48.70506" lon="1.98604">
        <ele>99</ele>
        <time>2016-03-28T12:20:08Z</time>
      </trkpt>
      <trkpt lat="48.70502" lon="1.986">
        <ele>99</ele>
        <time>2016-03-28T12:20:12Z</time>
      </trkpt>
      <trkpt lat="48.70497" lon="1.98595">
        <ele>99</ele>
        <time>2016-03-28T12:20:16Z</time>
      </trkpt>
      <trkpt lat="48.70494" lon="1.9859">
        <ele>99</ele>
        <time>2016-03-28T12:20:20Z</time>
      </trkpt>
      <trkpt lat="48.70476" lon="1.98576">
        <ele>100</ele>
        <time>2016-03-28T12:20:37Z</time>
      </trkpt>
      <trkpt lat="48.70477" lon="1.98563">
        <ele>100</ele>
        <time>2016-03-28T12:23:45Z</time>
      </trkpt>
      <trkpt lat="48.70473" lon="1.98553">
        <ele>100</ele>
        <time>2016-03-28T12:24:05Z</time>
      </trkpt>
      <trkpt lat="48.7047" lon="1.98564">
        <ele>96</ele>
        <time>2016-03-28T13:12:46Z</time>
      </trkpt>
      <trkpt lat="48.70471" lon="1.98575">
        <ele>94</ele>
        <time>2016-03-28T13:12:54Z</time>
      </trkpt>
      <trkpt lat="48.70474" lon="1.98578">
        <ele>89</ele>
        <time>2016-03-28T13:13:09Z</time>
      </trkpt>
      <trkpt lat="48.70478" lon="1.98572">
        <ele>89</ele>
        <time>2016-03-28T13:13:19Z</time>
      </trkpt>
      <trkpt lat="48.7048" lon="1.98574">
        <ele>89</ele>
        <time>2016-03-28T13:13:25Z</time>
      </trkpt>
      <trkpt lat="48.7048" lon="1.98578">
        <ele>90</ele>
        <time>2016-03-28T13:13:45Z</time>
      </trkpt>
      <trkpt lat="48.70477" lon="1.98583">
        <ele>95</ele>
        <time>2016-03-28T13:14:01Z</time>
      </trkpt>
      <trkpt lat="48.70475" lon="1.98579">
        <ele>96</ele>
        <time>2016-03-28T13:14:15Z</time>
      </trkpt>
      <trkpt lat="48.70476" lon="1.98574">
        <ele>100</ele>
        <time>2016-03-28T13:14:40Z</time>
      </trkpt>
      <trkpt lat="48.7048" lon="1.98576">
        <ele>101</ele>
        <time>2016-03-28T13:20:25Z</time>
      </trkpt>
      <trkpt lat="48.70482" lon="1.98581">
        <ele>105</ele>
        <time>2016-03-28T13:21:26Z</time>
      </trkpt>
      <trkpt lat="48.70486" lon="1.98587">
        <ele>107</ele>
        <time>2016-03-28T13:21:59Z</time>
      </trkpt>
      <trkpt lat="48.7049" lon="1.98589">
        <ele>107</ele>
        <time>2016-03-28T13:22:03Z</time>
      </trkpt>
      <trkpt lat="48.70499" lon="1.98595">
        <ele>108</ele>
        <time>2016-03-28T13:22:12Z</time>
      </trkpt>
      <trkpt lat="48.70509" lon="1.98599">
        <ele>108</ele>
        <time>2016-03-28T13:22:25Z</time>
      </trkpt>
      <trkpt lat="48.70514" lon="1.98612">
        <ele>108</ele>
        <time>2016-03-28T13:22:36Z</time>
      </trkpt>
      <trkpt lat="48.70525" lon="1.98617">
        <ele>108</ele>
        <time>2016-03-28T13:22:45Z</time>
      </trkpt>
      <trkpt lat="48.70538" lon="1.98624">
        <ele>106</ele>
        <time>2016-03-28T13:23:04Z</time>
      </trkpt>
      <trkpt lat="48.7054" lon="1.98626">
        <ele>105</ele>
        <time>2016-03-28T13:23:10Z</time>
      </trkpt>
      <trkpt lat="48.70545" lon="1.98625">
        <ele>104</ele>
        <time>2016-03-28T13:23:16Z</time>
      </trkpt>
      <trkpt lat="48.70549" lon="1.98629">
        <ele>104</ele>
        <time>2016-03-28T13:23:20Z</time>
      </trkpt>
      <trkpt lat="48.70555" lon="1.98627">
        <ele>103</ele>
        <time>2016-03-28T13:23:25Z</time>
      </trkpt>
      <trkpt lat="48.70559" lon="1.98625">
        <ele>103</ele>
        <time>2016-03-28T13:23:33Z</time>
      </trkpt>
      <trkpt lat="48.70564" lon="1.98619">
        <ele>102</ele>
        <time>2016-03-28T13:23:48Z</time>
      </trkpt>
      <trkpt lat="48.70568" lon="1.98621">
        <ele>103</ele>
        <time>2016-03-28T13:23:56Z</time>
      </trkpt>
      <trkpt lat="48.70582" lon="1.9862">
        <ele>104</ele>
        <time>2016-03-28T13:24:08Z</time>
      </trkpt>
      <trkpt lat="48.7059" lon="1.98607">
        <ele>107</ele>
        <time>2016-03-28T13:24:27Z</time>
      </trkpt>
      <trkpt lat="48.706" lon="1.98588">
        <ele>110</ele>
        <time>2016-03-28T13:24:42Z</time>
      </trkpt>
      <trkpt lat="48.70613" lon="1.98575">
        <ele>114</ele>
        <time>2016-03-28T13:25:02Z</time>
      </trkpt>
      <trkpt lat="48.70618" lon="1.98574">
        <ele>115</ele>
        <time>2016-03-28T13:25:08Z</time>
      </trkpt>
      <trkpt lat="48.70645" lon="1.98574">
        <ele>120</ele>
        <time>2016-03-28T13:25:41Z</time>
      </trkpt>
      <trkpt lat="48.70651" lon="1.98576">
        <ele>120</ele>
        <time>2016-03-28T13:25:48Z</time>
      </trkpt>
      <trkpt lat="48.70653" lon="1.98577">
        <ele>121</ele>
        <time>2016-03-28T13:25:54Z</time>
      </trkpt>
      <trkpt lat="48.70653" lon="1.98577">
        <ele>117</ele>
        <time>2016-03-28T13:28:08Z</time>
      </trkpt>
      <trkpt lat="48.70659" lon="1.98578">
        <ele>117</ele>
        <time>2016-03-28T13:28:13Z</time>
      </trkpt>
      <trkpt lat="48.70663" lon="1.98576">
        <ele>115</ele>
        <time>2016-03-28T13:28:16Z</time>
      </trkpt>
      <trkpt lat="48.70666" lon="1.98569">
        <ele>115</ele>
        <time>2016-03-28T13:28:20Z</time>
      </trkpt>
      <trkpt lat="48.70675" lon="1.98561">
        <ele>116</ele>
        <time>2016-03-28T13:28:28Z</time>
      </trkpt>
      <trkpt lat="48.70679" lon="1.98558">
        <ele>116</ele>
        <time>2016-03-28T13:28:34Z</time>
      </trkpt>
      <trkpt lat="48.70685" lon="1.98541">
        <ele>118</ele>
        <time>2016-03-28T13:28:50Z</time>
      </trkpt>
      <trkpt lat="48.70689" lon="1.98536">
        <ele>120</ele>
        <time>2016-03-28T13:29:36Z</time>
      </trkpt>
      <trkpt lat="48.70695" lon="1.98518">
        <ele>122</ele>
        <time>2016-03-28T13:29:56Z</time>
      </trkpt>
      <trkpt lat="48.70692" lon="1.98511">
        <ele>122</ele>
        <time>2016-03-28T13:30:01Z</time>
      </trkpt>
      <trkpt lat="48.70697" lon="1.98508">
        <ele>122</ele>
        <time>2016-03-28T13:30:14Z</time>
      </trkpt>
      <trkpt lat="48.707" lon="1.98514">
        <ele>122</ele>
        <time>2016-03-28T13:30:20Z</time>
      </trkpt>
      <trkpt lat="48.70702" lon="1.98517">
        <ele>121</ele>
        <time>2016-03-28T13:30:28Z</time>
      </trkpt>
      <trkpt lat="48.70708" lon="1.98523">
        <ele>122</ele>
        <time>2016-03-28T13:31:01Z</time>
      </trkpt>
      <trkpt lat="48.70713" lon="1.98527">
        <ele>122</ele>
        <time>2016-03-28T13:31:06Z</time>
      </trkpt>
      <trkpt lat="48.7073" lon="1.98559">
        <ele>119</ele>
        <time>2016-03-28T13:31:30Z</time>
      </trkpt>
      <trkpt lat="48.70762" lon="1.98608">
        <ele>115</ele>
        <time>2016-03-28T13:32:04Z</time>
      </trkpt>
      <trkpt lat="48.7078" lon="1.98643">
        <ele>113</ele>
        <time>2016-03-28T13:32:27Z</time>
      </trkpt>
      <trkpt lat="48.70785" lon="1.98645">
        <ele>113</ele>
        <time>2016-03-28T13:32:34Z</time>
      </trkpt>
      <trkpt lat="48.70789" lon="1.98637">
        <ele>113</ele>
        <time>2016-03-28T13:32:39Z</time>
      </trkpt>
      <trkpt lat="48.70817" lon="1.98583">
        <ele>114</ele>
        <time>2016-03-28T13:33:15Z</time>
      </trkpt>
      <trkpt lat="48.70819" lon="1.98568">
        <ele>114</ele>
        <time>2016-03-28T13:33:24Z</time>
      </trkpt>
      <trkpt lat="48.70823" lon="1.98563">
        <ele>114</ele>
        <time>2016-03-28T13:33:28Z</time>
      </trkpt>
      <trkpt lat="48.70836" lon="1.98549">
        <ele>113</ele>
        <time>2016-03-28T13:33:39Z</time>
      </trkpt>
      <trkpt lat="48.70881" lon="1.98544">
        <ele>109</ele>
        <time>2016-03-28T13:34:12Z</time>
      </trkpt>
      <trkpt lat="48.70922" lon="1.98557">
        <ele>107</ele>
        <time>2016-03-28T13:34:45Z</time>
      </trkpt>
      <trkpt lat="48.70928" lon="1.9856">
        <ele>106</ele>
        <time>2016-03-28T13:34:51Z</time>
      </trkpt>
      <trkpt lat="48.70933" lon="1.9856">
        <ele>106</ele>
        <time>2016-03-28T13:34:55Z</time>
      </trkpt>
      <trkpt lat="48.70938" lon="1.98563">
        <ele>104</ele>
        <time>2016-03-28T13:36:32Z</time>
      </trkpt>
      <trkpt lat="48.70941" lon="1.98565">
        <ele>104</ele>
        <time>2016-03-28T13:36:38Z</time>
      </trkpt>
      <trkpt lat="48.70942" lon="1.98572">
        <ele>103</ele>
        <time>2016-03-28T13:36:56Z</time>
      </trkpt>
      <trkpt lat="48.70946" lon="1.98577">
        <ele>103</ele>
        <time>2016-03-28T13:37:00Z</time>
      </trkpt>
      <trkpt lat="48.7095" lon="1.9858">
        <ele>102</ele>
        <time>2016-03-28T13:37:04Z</time>
      </trkpt>
      <trkpt lat="48.70991" lon="1.98597">
        <ele>99</ele>
        <time>2016-03-28T13:37:36Z</time>
      </trkpt>
      <trkpt lat="48.71035" lon="1.98582">
        <ele>98</ele>
        <time>2016-03-28T13:38:09Z</time>
      </trkpt>
      <trkpt lat="48.7108" lon="1.98581">
        <ele>98</ele>
        <time>2016-03-28T13:38:43Z</time>
      </trkpt>
      <trkpt lat="48.7112" lon="1.98588">
        <ele>97</ele>
        <time>2016-03-28T13:39:16Z</time>
      </trkpt>
      <trkpt lat="48.71161" lon="1.98591">
        <ele>96</ele>
        <time>2016-03-28T13:39:47Z</time>
      </trkpt>
      <trkpt lat="48.71185" lon="1.98591">
        <ele>96</ele>
        <time>2016-03-28T13:40:06Z</time>
      </trkpt>
      <trkpt lat="48.71197" lon="1.98576">
        <ele>96</ele>
        <time>2016-03-28T13:40:18Z</time>
      </trkpt>
      <trkpt lat="48.71222" lon="1.98571">
        <ele>96</ele>
        <time>2016-03-28T13:40:37Z</time>
      </trkpt>
      <trkpt lat="48.71227" lon="1.98565">
        <ele>96</ele>
        <time>2016-03-28T13:40:42Z</time>
      </trkpt>
      <trkpt lat="48.71238" lon="1.98561">
        <ele>96</ele>
        <time>2016-03-28T13:40:49Z</time>
      </trkpt>
      <trkpt lat="48.71272" lon="1.98514">
        <ele>97</ele>
        <time>2016-03-28T13:41:21Z</time>
      </trkpt>
      <trkpt lat="48.71291" lon="1.98511">
        <ele>97</ele>
        <time>2016-03-28T13:41:37Z</time>
      </trkpt>
      <trkpt lat="48.713" lon="1.98504">
        <ele>98</ele>
        <time>2016-03-28T13:41:49Z</time>
      </trkpt>
      <trkpt lat="48.71302" lon="1.98497">
        <ele>98</ele>
        <time>2016-03-28T13:41:53Z</time>
      </trkpt>
      <trkpt lat="48.71303" lon="1.98489">
        <ele>98</ele>
        <time>2016-03-28T13:41:57Z</time>
      </trkpt>
      <trkpt lat="48.713" lon="1.98474">
        <ele>98</ele>
        <time>2016-03-28T13:42:05Z</time>
      </trkpt>
      <trkpt lat="48.71302" lon="1.98465">
        <ele>98</ele>
        <time>2016-03-28T13:42:10Z</time>
      </trkpt>
      <trkpt lat="48.71303" lon="1.9843">
        <ele>98</ele>
        <time>2016-03-28T13:42:25Z</time>
      </trkpt>
      <trkpt lat="48.71307" lon="1.98423">
        <ele>98</ele>
        <time>2016-03-28T13:42:30Z</time>
      </trkpt>
      <trkpt lat="48.71309" lon="1.98417">
        <ele>98</ele>
        <time>2016-03-28T13:42:37Z</time>
      </trkpt>
      <trkpt lat="48.71312" lon="1.98416">
        <ele>99</ele>
        <time>2016-03-28T13:42:43Z</time>
      </trkpt>
      <trkpt lat="48.71317" lon="1.98414">
        <ele>99</ele>
        <time>2016-03-28T13:42:48Z</time>
      </trkpt>
      <trkpt lat="48.71335" lon="1.98389">
        <ele>100</ele>
        <time>2016-03-28T13:43:14Z</time>
      </trkpt>
      <trkpt lat="48.71338" lon="1.98375">
        <ele>101</ele>
        <time>2016-03-28T13:43:19Z</time>
      </trkpt>
      <trkpt lat="48.71336" lon="1.9836">
        <ele>101</ele>
        <time>2016-03-28T13:43:27Z</time>
      </trkpt>
      <trkpt lat="48.71339" lon="1.98353">
        <ele>101</ele>
        <time>2016-03-28T13:43:32Z</time>
      </trkpt>
      <trkpt lat="48.71345" lon="1.98351">
        <ele>101</ele>
        <time>2016-03-28T13:43:36Z</time>
      </trkpt>
      <trkpt lat="48.71354" lon="1.98333">
        <ele>102</ele>
        <time>2016-03-28T13:43:47Z</time>
      </trkpt>
      <trkpt lat="48.71358" lon="1.98319">
        <ele>102</ele>
        <time>2016-03-28T13:44:01Z</time>
      </trkpt>
      <trkpt lat="48.71382" lon="1.9829">
        <ele>101</ele>
        <time>2016-03-28T13:44:21Z</time>
      </trkpt>
      <trkpt lat="48.71396" lon="1.98281">
        <ele>101</ele>
        <time>2016-03-28T13:44:31Z</time>
      </trkpt>
      <trkpt lat="48.71404" lon="1.98275">
        <ele>102</ele>
        <time>2016-03-28T13:44:40Z</time>
      </trkpt>
      <trkpt lat="48.71407" lon="1.9826">
        <ele>102</ele>
        <time>2016-03-28T13:44:45Z</time>
      </trkpt>
      <trkpt lat="48.71426" lon="1.982">
        <ele>105</ele>
        <time>2016-03-28T13:45:15Z</time>
      </trkpt>
      <trkpt lat="48.71431" lon="1.98186">
        <ele>106</ele>
        <time>2016-03-28T13:45:24Z</time>
      </trkpt>
      <trkpt lat="48.71428" lon="1.98172">
        <ele>107</ele>
        <time>2016-03-28T13:45:32Z</time>
      </trkpt>
      <trkpt lat="48.71432" lon="1.98157">
        <ele>108</ele>
        <time>2016-03-28T13:45:42Z</time>
      </trkpt>
      <trkpt lat="48.71441" lon="1.9814">
        <ele>109</ele>
        <time>2016-03-28T13:45:58Z</time>
      </trkpt>
      <trkpt lat="48.71439" lon="1.98132">
        <ele>110</ele>
        <time>2016-03-28T13:46:02Z</time>
      </trkpt>
      <trkpt lat="48.71436" lon="1.98117">
        <ele>111</ele>
        <time>2016-03-28T13:46:09Z</time>
      </trkpt>
      <trkpt lat="48.71436" lon="1.98061">
        <ele>110</ele>
        <time>2016-03-28T13:46:37Z</time>
      </trkpt>
      <trkpt lat="48.71439" lon="1.98054">
        <ele>110</ele>
        <time>2016-03-28T13:46:41Z</time>
      </trkpt>
      <trkpt lat="48.71439" lon="1.98046">
        <ele>110</ele>
        <time>2016-03-28T13:46:44Z</time>
      </trkpt>
      <trkpt lat="48.71437" lon="1.98018">
        <ele>109</ele>
        <time>2016-03-28T13:46:57Z</time>
      </trkpt>
      <trkpt lat="48.71441" lon="1.98012">
        <ele>108</ele>
        <time>2016-03-28T13:47:01Z</time>
      </trkpt>
      <trkpt lat="48.71449" lon="1.97981">
        <ele>107</ele>
        <time>2016-03-28T13:47:16Z</time>
      </trkpt>
      <trkpt lat="48.71449" lon="1.97969">
        <ele>107</ele>
        <time>2016-03-28T13:47:20Z</time>
      </trkpt>
      <trkpt lat="48.71458" lon="1.97912">
        <ele>103</ele>
        <time>2016-03-28T13:47:55Z</time>
      </trkpt>
      <trkpt lat="48.71453" lon="1.97906">
        <ele>103</ele>
        <time>2016-03-28T13:48:07Z</time>
      </trkpt>
      <trkpt lat="48.71458" lon="1.97867">
        <ele>103</ele>
        <time>2016-03-28T13:48:30Z</time>
      </trkpt>
      <trkpt lat="48.71464" lon="1.97856">
        <ele>103</ele>
        <time>2016-03-28T13:48:38Z</time>
      </trkpt>
      <trkpt lat="48.71463" lon="1.97847">
        <ele>103</ele>
        <time>2016-03-28T13:48:42Z</time>
      </trkpt>
      <trkpt lat="48.71463" lon="1.97838">
        <ele>103</ele>
        <time>2016-03-28T13:48:51Z</time>
      </trkpt>
      <trkpt lat="48.71462" lon="1.97832">
        <ele>103</ele>
        <time>2016-03-28T13:48:55Z</time>
      </trkpt>
      <trkpt lat="48.71465" lon="1.97824">
        <ele>102</ele>
        <time>2016-03-28T13:49:00Z</time>
      </trkpt>
      <trkpt lat="48.71469" lon="1.97822">
        <ele>102</ele>
        <time>2016-03-28T13:49:03Z</time>
      </trkpt>
      <trkpt lat="48.71472" lon="1.97816">
        <ele>102</ele>
        <time>2016-03-28T13:49:07Z</time>
      </trkpt>
      <trkpt lat="48.71471" lon="1.97809">
        <ele>102</ele>
        <time>2016-03-28T13:49:12Z</time>
      </trkpt>
      <trkpt lat="48.71474" lon="1.97802">
        <ele>102</ele>
        <time>2016-03-28T13:49:16Z</time>
      </trkpt>
      <trkpt lat="48.71479" lon="1.97799">
        <ele>102</ele>
        <time>2016-03-28T13:49:19Z</time>
      </trkpt>
      <trkpt lat="48.71483" lon="1.97785">
        <ele>102</ele>
        <time>2016-03-28T13:49:29Z</time>
      </trkpt>
      <trkpt lat="48.71487" lon="1.97778">
        <ele>103</ele>
        <time>2016-03-28T13:49:45Z</time>
      </trkpt>
      <trkpt lat="48.71501" lon="1.97753">
        <ele>104</ele>
        <time>2016-03-28T13:50:01Z</time>
      </trkpt>
      <trkpt lat="48.71504" lon="1.97748">
        <ele>104</ele>
        <time>2016-03-28T13:50:08Z</time>
      </trkpt>
      <trkpt lat="48.7151" lon="1.97745">
        <ele>105</ele>
        <time>2016-03-28T13:50:14Z</time>
      </trkpt>
      <trkpt lat="48.71513" lon="1.97733">
        <ele>106</ele>
        <time>2016-03-28T13:50:24Z</time>
      </trkpt>
      <trkpt lat="48.71518" lon="1.97721">
        <ele>106</ele>
        <time>2016-03-28T13:50:31Z</time>
      </trkpt>
      <trkpt lat="48.71515" lon="1.97707">
        <ele>106</ele>
        <time>2016-03-28T13:50:37Z</time>
      </trkpt>
      <trkpt lat="48.71517" lon="1.97694">
        <ele>106</ele>
        <time>2016-03-28T13:50:44Z</time>
      </trkpt>
      <trkpt lat="48.7152" lon="1.9767">
        <ele>105</ele>
        <time>2016-03-28T13:50:54Z</time>
      </trkpt>
      <trkpt lat="48.71535" lon="1.97638">
        <ele>103</ele>
        <time>2016-03-28T13:51:18Z</time>
      </trkpt>
      <trkpt lat="48.71533" lon="1.97623">
        <ele>103</ele>
        <time>2016-03-28T13:51:25Z</time>
      </trkpt>
      <trkpt lat="48.71536" lon="1.97617">
        <ele>102</ele>
        <time>2016-03-28T13:51:29Z</time>
      </trkpt>
      <trkpt lat="48.7154" lon="1.97614">
        <ele>102</ele>
        <time>2016-03-28T13:51:33Z</time>
      </trkpt>
      <trkpt lat="48.71545" lon="1.97596">
        <ele>103</ele>
        <time>2016-03-28T13:51:54Z</time>
      </trkpt>
      <trkpt lat="48.71553" lon="1.97588">
        <ele>104</ele>
        <time>2016-03-28T13:52:02Z</time>
      </trkpt>
      <trkpt lat="48.71564" lon="1.97581">
        <ele>105</ele>
        <time>2016-03-28T13:52:11Z</time>
      </trkpt>
      <trkpt lat="48.71577" lon="1.97563">
        <ele>106</ele>
        <time>2016-03-28T13:52:29Z</time>
      </trkpt>
      <trkpt lat="48.71579" lon="1.97556">
        <ele>106</ele>
        <time>2016-03-28T13:52:34Z</time>
      </trkpt>
      <trkpt lat="48.71577" lon="1.97547">
        <ele>106</ele>
        <time>2016-03-28T13:52:40Z</time>
      </trkpt>
      <trkpt lat="48.71581" lon="1.97537">
        <ele>106</ele>
        <time>2016-03-28T13:52:48Z</time>
      </trkpt>
      <trkpt lat="48.71587" lon="1.97537">
        <ele>106</ele>
        <time>2016-03-28T13:52:52Z</time>
      </trkpt>
      <trkpt lat="48.71596" lon="1.97529">
        <ele>105</ele>
        <time>2016-03-28T13:53:07Z</time>
      </trkpt>
      <trkpt lat="48.71596" lon="1.9752">
        <ele>104</ele>
        <time>2016-03-28T13:53:12Z</time>
      </trkpt>
      <trkpt lat="48.71605" lon="1.97501">
        <ele>104</ele>
        <time>2016-03-28T13:53:25Z</time>
      </trkpt>
      <trkpt lat="48.71606" lon="1.97492">
        <ele>104</ele>
        <time>2016-03-28T13:53:31Z</time>
      </trkpt>
      <trkpt lat="48.71609" lon="1.97486">
        <ele>104</ele>
        <time>2016-03-28T13:53:34Z</time>
      </trkpt>
      <trkpt lat="48.71614" lon="1.97483">
        <ele>105</ele>
        <time>2016-03-28T13:53:38Z</time>
      </trkpt>
      <trkpt lat="48.71625" lon="1.97467">
        <ele>106</ele>
        <time>2016-03-28T13:53:52Z</time>
      </trkpt>
      <trkpt lat="48.7163" lon="1.97464">
        <ele>106</ele>
        <time>2016-03-28T13:53:58Z</time>
      </trkpt>
      <trkpt lat="48.71633" lon="1.97458">
        <ele>106</ele>
        <time>2016-03-28T13:54:03Z</time>
      </trkpt>
      <trkpt lat="48.71638" lon="1.97458">
        <ele>107</ele>
        <time>2016-03-28T13:54:14Z</time>
      </trkpt>
      <trkpt lat="48.71639" lon="1.97455">
        <ele>108</ele>
        <time>2016-03-28T13:54:20Z</time>
      </trkpt>
      <trkpt lat="48.71646" lon="1.97458">
        <ele>108</ele>
        <time>2016-03-28T13:54:27Z</time>
      </trkpt>
      <trkpt lat="48.71649" lon="1.97451">
        <ele>109</ele>
        <time>2016-03-28T13:54:32Z</time>
      </trkpt>
      <trkpt lat="48.7165" lon="1.97445">
        <ele>109</ele>
        <time>2016-03-28T13:54:36Z</time>
      </trkpt>
      <trkpt lat="48.71656" lon="1.97442">
        <ele>110</ele>
        <time>2016-03-28T13:54:40Z</time>
      </trkpt>
      <trkpt lat="48.71658" lon="1.97435">
        <ele>111</ele>
        <time>2016-03-28T13:54:57Z</time>
      </trkpt>
      <trkpt lat="48.71655" lon="1.97428">
        <ele>112</ele>
        <time>2016-03-28T13:57:50Z</time>
      </trkpt>
      <trkpt lat="48.71655" lon="1.97411">
        <ele>112</ele>
        <time>2016-03-28T14:00:14Z</time>
      </trkpt>
      <trkpt lat="48.71659" lon="1.97398">
        <ele>109</ele>
        <time>2016-03-28T14:00:23Z</time>
      </trkpt>
      <trkpt lat="48.71665" lon="1.97379">
        <ele>108</ele>
        <time>2016-03-28T14:00:32Z</time>
      </trkpt>
      <trkpt lat="48.71669" lon="1.97375">
        <ele>108</ele>
        <time>2016-03-28T14:00:36Z</time>
      </trkpt>
      <trkpt lat="48.71685" lon="1.97339">
        <ele>108</ele>
        <time>2016-03-28T14:01:08Z</time>
      </trkpt>
      <trkpt lat="48.7169" lon="1.97292">
        <ele>107</ele>
        <time>2016-03-28T14:01:29Z</time>
      </trkpt>
      <trkpt lat="48.71694" lon="1.97288">
        <ele>107</ele>
        <time>2016-03-28T14:01:32Z</time>
      </trkpt>
      <trkpt lat="48.71702" lon="1.97253">
        <ele>108</ele>
        <time>2016-03-28T14:01:55Z</time>
      </trkpt>
      <trkpt lat="48.71707" lon="1.97247">
        <ele>107</ele>
        <time>2016-03-28T14:02:01Z</time>
      </trkpt>
      <trkpt lat="48.7171" lon="1.97234">
        <ele>106</ele>
        <time>2016-03-28T14:02:09Z</time>
      </trkpt>
      <trkpt lat="48.71717" lon="1.97207">
        <ele>106</ele>
        <time>2016-03-28T14:02:23Z</time>
      </trkpt>
      <trkpt lat="48.71717" lon="1.97191">
        <ele>106</ele>
        <time>2016-03-28T14:02:31Z</time>
      </trkpt>
      <trkpt lat="48.71722" lon="1.97179">
        <ele>107</ele>
        <time>2016-03-28T14:02:41Z</time>
      </trkpt>
      <trkpt lat="48.71718" lon="1.97173">
        <ele>107</ele>
        <time>2016-03-28T14:02:46Z</time>
      </trkpt>
      <trkpt lat="48.71718" lon="1.97165">
        <ele>107</ele>
        <time>2016-03-28T14:02:52Z</time>
      </trkpt>
      <trkpt lat="48.71733" lon="1.97108">
        <ele>106</ele>
        <time>2016-03-28T14:03:27Z</time>
      </trkpt>
      <trkpt lat="48.71736" lon="1.97039">
        <ele>102</ele>
        <time>2016-03-28T14:04:22Z</time>
      </trkpt>
      <trkpt lat="48.7174" lon="1.97033">
        <ele>102</ele>
        <time>2016-03-28T14:04:26Z</time>
      </trkpt>
      <trkpt lat="48.71744" lon="1.97027">
        <ele>102</ele>
        <time>2016-03-28T14:04:30Z</time>
      </trkpt>
      <trkpt lat="48.71751" lon="1.9699">
        <ele>103</ele>
        <time>2016-03-28T14:04:46Z</time>
      </trkpt>
      <trkpt lat="48.71752" lon="1.96967">
        <ele>103</ele>
        <time>2016-03-28T14:04:57Z</time>
      </trkpt>
      <trkpt lat="48.71756" lon="1.96956">
        <ele>103</ele>
        <time>2016-03-28T14:05:05Z</time>
      </trkpt>
      <trkpt lat="48.71754" lon="1.96941">
        <ele>103</ele>
        <time>2016-03-28T14:05:13Z</time>
      </trkpt>
      <trkpt lat="48.71758" lon="1.96932">
        <ele>104</ele>
        <time>2016-03-28T14:05:27Z</time>
      </trkpt>
      <trkpt lat="48.71767" lon="1.96925">
        <ele>103</ele>
        <time>2016-03-28T14:05:34Z</time>
      </trkpt>
      <trkpt lat="48.71781" lon="1.96885">
        <ele>105</ele>
        <time>2016-03-28T14:06:05Z</time>
      </trkpt>
      <trkpt lat="48.71787" lon="1.96824">
        <ele>105</ele>
        <time>2016-03-28T14:06:35Z</time>
      </trkpt>
      <trkpt lat="48.71788" lon="1.96787">
        <ele>104</ele>
        <time>2016-03-28T14:06:54Z</time>
      </trkpt>
      <trkpt lat="48.7179" lon="1.9678">
        <ele>104</ele>
        <time>2016-03-28T14:06:58Z</time>
      </trkpt>
      <trkpt lat="48.71795" lon="1.96777">
        <ele>104</ele>
        <time>2016-03-28T14:07:05Z</time>
      </trkpt>
      <trkpt lat="48.71801" lon="1.9678">
        <ele>107</ele>
        <time>2016-03-28T14:07:21Z</time>
      </trkpt>
      <trkpt lat="48.71817" lon="1.96787">
        <ele>111</ele>
        <time>2016-03-28T14:07:56Z</time>
      </trkpt>
      <trkpt lat="48.71822" lon="1.96785">
        <ele>113</ele>
        <time>2016-03-28T14:08:05Z</time>
      </trkpt>
      <trkpt lat="48.71829" lon="1.9679">
        <ele>115</ele>
        <time>2016-03-28T14:08:17Z</time>
      </trkpt>
      <trkpt lat="48.71833" lon="1.96789">
        <ele>117</ele>
        <time>2016-03-28T14:08:26Z</time>
      </trkpt>
      <trkpt lat="48.71836" lon="1.96783">
        <ele>117</ele>
        <time>2016-03-28T14:08:27Z</time>
      </trkpt>
      <trkpt lat="48.7184" lon="1.96784">
        <ele>118</ele>
        <time>2016-03-28T14:08:32Z</time>
      </trkpt>
      <trkpt lat="48.71849" lon="1.96781">
        <ele>123</ele>
        <time>2016-03-28T14:09:00Z</time>
      </trkpt>
      <trkpt lat="48.71854" lon="1.96782">
        <ele>123</ele>
        <time>2016-03-28T14:09:03Z</time>
      </trkpt>
      <trkpt lat="48.7186" lon="1.96776">
        <ele>126</ele>
        <time>2016-03-28T14:09:26Z</time>
      </trkpt>
      <trkpt lat="48.71861" lon="1.96772">
        <ele>128</ele>
        <time>2016-03-28T14:09:38Z</time>
      </trkpt>
      <trkpt lat="48.71864" lon="1.9677">
        <ele>129</ele>
        <time>2016-03-28T14:09:45Z</time>
      </trkpt>
      <trkpt lat="48.7187" lon="1.96769">
        <ele>132</ele>
        <time>2016-03-28T14:10:00Z</time>
      </trkpt>
      <trkpt lat="48.71873" lon="1.96774">
        <ele>133</ele>
        <time>2016-03-28T14:10:07Z</time>
      </trkpt>
      <trkpt lat="48.71878" lon="1.96771">
        <ele>134</ele>
        <time>2016-03-28T14:10:14Z</time>
      </trkpt>
      <trkpt lat="48.71894" lon="1.96738">
        <ele>149</ele>
        <time>2016-03-28T14:11:05Z</time>
      </trkpt>
      <trkpt lat="48.71898" lon="1.96739">
        <ele>150</ele>
        <time>2016-03-28T14:11:14Z</time>
      </trkpt>
      <trkpt lat="48.71908" lon="1.96733">
        <ele>154</ele>
        <time>2016-03-28T14:11:31Z</time>
      </trkpt>
      <trkpt lat="48.7191" lon="1.96726">
        <ele>155</ele>
        <time>2016-03-28T14:11:36Z</time>
      </trkpt>
      <trkpt lat="48.71911" lon="1.96718">
        <ele>155</ele>
        <time>2016-03-28T14:11:40Z</time>
      </trkpt>
      <trkpt lat="48.71918" lon="1.96706">
        <ele>154</ele>
        <time>2016-03-28T14:11:48Z</time>
      </trkpt>
      <trkpt lat="48.7192" lon="1.96698">
        <ele>153</ele>
        <time>2016-03-28T14:11:53Z</time>
      </trkpt>
      <trkpt lat="48.71923" lon="1.96692">
        <ele>153</ele>
        <time>2016-03-28T14:11:58Z</time>
      </trkpt>
      <trkpt lat="48.71935" lon="1.96657">
        <ele>151</ele>
        <time>2016-03-28T14:12:18Z</time>
      </trkpt>
      <trkpt lat="48.71939" lon="1.96654">
        <ele>151</ele>
        <time>2016-03-28T14:12:21Z</time>
      </trkpt>
      <trkpt lat="48.71944" lon="1.96654">
        <ele>150</ele>
        <time>2016-03-28T14:12:25Z</time>
      </trkpt>
      <trkpt lat="48.71948" lon="1.96649">
        <ele>150</ele>
        <time>2016-03-28T14:12:29Z</time>
      </trkpt>
      <trkpt lat="48.71951" lon="1.96643">
        <ele>149</ele>
        <time>2016-03-28T14:12:33Z</time>
      </trkpt>
      <trkpt lat="48.71956" lon="1.96629">
        <ele>150</ele>
        <time>2016-03-28T14:12:40Z</time>
      </trkpt>
      <trkpt lat="48.71962" lon="1.96608">
        <ele>150</ele>
        <time>2016-03-28T14:12:51Z</time>
      </trkpt>
      <trkpt lat="48.71966" lon="1.96595">
        <ele>150</ele>
        <time>2016-03-28T14:12:59Z</time>
      </trkpt>
      <trkpt lat="48.71971" lon="1.96591">
        <ele>150</ele>
        <time>2016-03-28T14:13:03Z</time>
      </trkpt>
      <trkpt lat="48.71973" lon="1.96584">
        <ele>151</ele>
        <time>2016-03-28T14:13:07Z</time>
      </trkpt>
      <trkpt lat="48.71974" lon="1.96569">
        <ele>151</ele>
        <time>2016-03-28T14:13:13Z</time>
      </trkpt>
      <trkpt lat="48.7199" lon="1.96533">
        <ele>151</ele>
        <time>2016-03-28T14:13:39Z</time>
      </trkpt>
      <trkpt lat="48.72011" lon="1.96508">
        <ele>151</ele>
        <time>2016-03-28T14:13:57Z</time>
      </trkpt>
      <trkpt lat="48.72012" lon="1.965">
        <ele>151</ele>
        <time>2016-03-28T14:14:02Z</time>
      </trkpt>
      <trkpt lat="48.72015" lon="1.96485">
        <ele>152</ele>
        <time>2016-03-28T14:14:13Z</time>
      </trkpt>
      <trkpt lat="48.72021" lon="1.96474">
        <ele>154</ele>
        <time>2016-03-28T14:14:24Z</time>
      </trkpt>
      <trkpt lat="48.72024" lon="1.96467">
        <ele>153</ele>
        <time>2016-03-28T14:14:30Z</time>
      </trkpt>
      <trkpt lat="48.72032" lon="1.96421">
        <ele>151</ele>
        <time>2016-03-28T14:15:02Z</time>
      </trkpt>
      <trkpt lat="48.72033" lon="1.96414">
        <ele>151</ele>
        <time>2016-03-28T14:15:07Z</time>
      </trkpt>
      <trkpt lat="48.72039" lon="1.96402">
        <ele>151</ele>
        <time>2016-03-28T14:15:15Z</time>
      </trkpt>
      <trkpt lat="48.7204" lon="1.96398">
        <ele>151</ele>
        <time>2016-03-28T14:15:21Z</time>
      </trkpt>
      <trkpt lat="48.72041" lon="1.96391">
        <ele>151</ele>
        <time>2016-03-28T14:15:32Z</time>
      </trkpt>
      <trkpt lat="48.72046" lon="1.96378">
        <ele>152</ele>
        <time>2016-03-28T14:15:42Z</time>
      </trkpt>
      <trkpt lat="48.72056" lon="1.96372">
        <ele>152</ele>
        <time>2016-03-28T14:15:52Z</time>
      </trkpt>
      <trkpt lat="48.7206" lon="1.96368">
        <ele>152</ele>
        <time>2016-03-28T14:15:58Z</time>
      </trkpt>
      <trkpt lat="48.72086" lon="1.96345">
        <ele>152</ele>
        <time>2016-03-28T14:16:25Z</time>
      </trkpt>
      <trkpt lat="48.72085" lon="1.96337">
        <ele>152</ele>
        <time>2016-03-28T14:16:28Z</time>
      </trkpt>
      <trkpt lat="48.72083" lon="1.96328">
        <ele>152</ele>
        <time>2016-03-28T14:16:31Z</time>
      </trkpt>
      <trkpt lat="48.72086" lon="1.96312">
        <ele>152</ele>
        <time>2016-03-28T14:16:40Z</time>
      </trkpt>
      <trkpt lat="48.7209" lon="1.96298">
        <ele>152</ele>
        <time>2016-03-28T14:16:48Z</time>
      </trkpt>
      <trkpt lat="48.72091" lon="1.96294">
        <ele>153</ele>
        <time>2016-03-28T14:16:56Z</time>
      </trkpt>
      <trkpt lat="48.72095" lon="1.9629">
        <ele>155</ele>
        <time>2016-03-28T14:18:32Z</time>
      </trkpt>
      <trkpt lat="48.72097" lon="1.96285">
        <ele>156</ele>
        <time>2016-03-28T14:20:36Z</time>
      </trkpt>
      <trkpt lat="48.72095" lon="1.9628">
        <ele>156</ele>
        <time>2016-03-28T14:20:49Z</time>
      </trkpt>
      <trkpt lat="48.72111" lon="1.96259">
        <ele>156</ele>
        <time>2016-03-28T14:22:22Z</time>
      </trkpt>
      <trkpt lat="48.72121" lon="1.96251">
        <ele>155</ele>
        <time>2016-03-28T14:22:31Z</time>
      </trkpt>
      <trkpt lat="48.72125" lon="1.96242">
        <ele>155</ele>
        <time>2016-03-28T14:22:41Z</time>
      </trkpt>
      <trkpt lat="48.72126" lon="1.96235">
        <ele>155</ele>
        <time>2016-03-28T14:22:46Z</time>
      </trkpt>
      <trkpt lat="48.72132" lon="1.96233">
        <ele>155</ele>
        <time>2016-03-28T14:22:49Z</time>
      </trkpt>
      <trkpt lat="48.72145" lon="1.96225">
        <ele>155</ele>
        <time>2016-03-28T14:23:00Z</time>
      </trkpt>
      <trkpt lat="48.72149" lon="1.96221">
        <ele>156</ele>
        <time>2016-03-28T14:23:07Z</time>
      </trkpt>
      <trkpt lat="48.72152" lon="1.96214">
        <ele>156</ele>
        <time>2016-03-28T14:23:12Z</time>
      </trkpt>
      <trkpt lat="48.72154" lon="1.96213">
        <ele>156</ele>
        <time>2016-03-28T14:23:18Z</time>
      </trkpt>
      <trkpt lat="48.72157" lon="1.96207">
        <ele>156</ele>
        <time>2016-03-28T14:23:25Z</time>
      </trkpt>
      <trkpt lat="48.72169" lon="1.96201">
        <ele>158</ele>
        <time>2016-03-28T14:23:39Z</time>
      </trkpt>
      <trkpt lat="48.72174" lon="1.96204">
        <ele>158</ele>
        <time>2016-03-28T14:23:44Z</time>
      </trkpt>
      <trkpt lat="48.72205" lon="1.96201">
        <ele>160</ele>
        <time>2016-03-28T14:24:11Z</time>
      </trkpt>
      <trkpt lat="48.72213" lon="1.96192">
        <ele>160</ele>
        <time>2016-03-28T14:24:19Z</time>
      </trkpt>
      <trkpt lat="48.72227" lon="1.96189">
        <ele>160</ele>
        <time>2016-03-28T14:24:30Z</time>
      </trkpt>
      <trkpt lat="48.72235" lon="1.96181">
        <ele>160</ele>
        <time>2016-03-28T14:24:41Z</time>
      </trkpt>
      <trkpt lat="48.7224" lon="1.9618">
        <ele>160</ele>
        <time>2016-03-28T14:24:45Z</time>
      </trkpt>
      <trkpt lat="48.72245" lon="1.9618">
        <ele>160</ele>
        <time>2016-03-28T14:24:49Z</time>
      </trkpt>
      <trkpt lat="48.72255" lon="1.96176">
        <ele>161</ele>
        <time>2016-03-28T14:24:58Z</time>
      </trkpt>
      <trkpt lat="48.72259" lon="1.96173">
        <ele>161</ele>
        <time>2016-03-28T14:25:03Z</time>
      </trkpt>
      <trkpt lat="48.72264" lon="1.96172">
        <ele>161</ele>
        <time>2016-03-28T14:25:08Z</time>
      </trkpt>
      <trkpt lat="48.72292" lon="1.96184">
        <ele>162</ele>
        <time>2016-03-28T14:25:28Z</time>
      </trkpt>
      <trkpt lat="48.7232" lon="1.96205">
        <ele>161</ele>
        <time>2016-03-28T14:25:59Z</time>
      </trkpt>
      <trkpt lat="48.72323" lon="1.96209">
        <ele>161</ele>
        <time>2016-03-28T14:26:03Z</time>
      </trkpt>
      <trkpt lat="48.72328" lon="1.96211">
        <ele>161</ele>
        <time>2016-03-28T14:26:07Z</time>
      </trkpt>
      <trkpt lat="48.72343" lon="1.96232">
        <ele>161</ele>
        <time>2016-03-28T14:26:25Z</time>
      </trkpt>
      <trkpt lat="48.72354" lon="1.96233">
        <ele>161</ele>
        <time>2016-03-28T14:26:34Z</time>
      </trkpt>
      <trkpt lat="48.72359" lon="1.96235">
        <ele>161</ele>
        <time>2016-03-28T14:26:39Z</time>
      </trkpt>
      <trkpt lat="48.72364" lon="1.96238">
        <ele>160</ele>
        <time>2016-03-28T14:26:44Z</time>
      </trkpt>
      <trkpt lat="48.72369" lon="1.9624">
        <ele>161</ele>
        <time>2016-03-28T14:26:49Z</time>
      </trkpt>
      <trkpt lat="48.72381" lon="1.96254">
        <ele>161</ele>
        <time>2016-03-28T14:27:00Z</time>
      </trkpt>
      <trkpt lat="48.72391" lon="1.96256">
        <ele>161</ele>
        <time>2016-03-28T14:27:11Z</time>
      </trkpt>
      <trkpt lat="48.72395" lon="1.9626">
        <ele>161</ele>
        <time>2016-03-28T14:27:16Z</time>
      </trkpt>
      <trkpt lat="48.72413" lon="1.96273">
        <ele>161</ele>
        <time>2016-03-28T14:27:33Z</time>
      </trkpt>
      <trkpt lat="48.72418" lon="1.96272">
        <ele>161</ele>
        <time>2016-03-28T14:27:37Z</time>
      </trkpt>
      <trkpt lat="48.72423" lon="1.96267">
        <ele>160</ele>
        <time>2016-03-28T14:27:43Z</time>
      </trkpt>
      <trkpt lat="48.72428" lon="1.96266">
        <ele>160</ele>
        <time>2016-03-28T14:27:47Z</time>
      </trkpt>
      <trkpt lat="48.72443" lon="1.96271">
        <ele>161</ele>
        <time>2016-03-28T14:27:58Z</time>
      </trkpt>
      <trkpt lat="48.72472" lon="1.96279">
        <ele>162</ele>
        <time>2016-03-28T14:28:28Z</time>
      </trkpt>
      <trkpt lat="48.72477" lon="1.96286">
        <ele>161</ele>
        <time>2016-03-28T14:28:35Z</time>
      </trkpt>
      <trkpt lat="48.72504" lon="1.96296">
        <ele>162</ele>
        <time>2016-03-28T14:28:55Z</time>
      </trkpt>
      <trkpt lat="48.72505" lon="1.96303">
        <ele>163</ele>
        <time>2016-03-28T14:29:18Z</time>
      </trkpt>
      <trkpt lat="48.72506" lon="1.96311">
        <ele>163</ele>
        <time>2016-03-28T14:29:23Z</time>
      </trkpt>
      <trkpt lat="48.7251" lon="1.96314">
        <ele>163</ele>
        <time>2016-03-28T14:29:26Z</time>
      </trkpt>
      <trkpt lat="48.72521" lon="1.96339">
        <ele>164</ele>
        <time>2016-03-28T14:29:43Z</time>
      </trkpt>
      <trkpt lat="48.72525" lon="1.96342">
        <ele>165</ele>
        <time>2016-03-28T14:29:47Z</time>
      </trkpt>
      <trkpt lat="48.72529" lon="1.96345">
        <ele>165</ele>
        <time>2016-03-28T14:29:51Z</time>
      </trkpt>
      <trkpt lat="48.72538" lon="1.96351">
        <ele>165</ele>
        <time>2016-03-28T14:30:01Z</time>
      </trkpt>
      <trkpt lat="48.7257" lon="1.96369">
        <ele>166</ele>
        <time>2016-03-28T14:30:32Z</time>
      </trkpt>
      <trkpt lat="48.72573" lon="1.96375">
        <ele>166</ele>
        <time>2016-03-28T14:30:38Z</time>
      </trkpt>
      <trkpt lat="48.72577" lon="1.96378">
        <ele>167</ele>
        <time>2016-03-28T14:30:42Z</time>
      </trkpt>
      <trkpt lat="48.72582" lon="1.96383">
        <ele>167</ele>
        <time>2016-03-28T14:30:46Z</time>
      </trkpt>
      <trkpt lat="48.72603" lon="1.96402">
        <ele>167</ele>
        <time>2016-03-28T14:31:02Z</time>
      </trkpt>
      <trkpt lat="48.72607" lon="1.96405">
        <ele>167</ele>
        <time>2016-03-28T14:31:06Z</time>
      </trkpt>
      <trkpt lat="48.72612" lon="1.96409">
        <ele>167</ele>
        <time>2016-03-28T14:31:10Z</time>
      </trkpt>
      <trkpt lat="48.72626" lon="1.96417">
        <ele>167</ele>
        <time>2016-03-28T14:31:21Z</time>
      </trkpt>
      <trkpt lat="48.72631" lon="1.96421">
        <ele>167</ele>
        <time>2016-03-28T14:31:25Z</time>
      </trkpt>
      <trkpt lat="48.7264" lon="1.96427">
        <ele>167</ele>
        <time>2016-03-28T14:31:35Z</time>
      </trkpt>
      <trkpt lat="48.72644" lon="1.96431">
        <ele>166</ele>
        <time>2016-03-28T14:31:40Z</time>
      </trkpt>
      <trkpt lat="48.72649" lon="1.96433">
        <ele>167</ele>
        <time>2016-03-28T14:31:45Z</time>
      </trkpt>
      <trkpt lat="48.72677" lon="1.96452">
        <ele>165</ele>
        <time>2016-03-28T14:32:09Z</time>
      </trkpt>
      <trkpt lat="48.72682" lon="1.96454">
        <ele>165</ele>
        <time>2016-03-28T14:32:14Z</time>
      </trkpt>
      <trkpt lat="48.72687" lon="1.96459">
        <ele>165</ele>
        <time>2016-03-28T14:32:19Z</time>
      </trkpt>
      <trkpt lat="48.72691" lon="1.96461">
        <ele>165</ele>
        <time>2016-03-28T14:32:23Z</time>
      </trkpt>
      <trkpt lat="48.72725" lon="1.96474">
        <ele>166</ele>
        <time>2016-03-28T14:32:54Z</time>
      </trkpt>
      <trkpt lat="48.7275" lon="1.96478">
        <ele>167</ele>
        <time>2016-03-28T14:33:15Z</time>
      </trkpt>
      <trkpt lat="48.72755" lon="1.96479">
        <ele>167</ele>
        <time>2016-03-28T14:33:18Z</time>
      </trkpt>
      <trkpt lat="48.72786" lon="1.96475">
        <ele>168</ele>
        <time>2016-03-28T14:33:49Z</time>
      </trkpt>
      <trkpt lat="48.72796" lon="1.96473">
        <ele>168</ele>
        <time>2016-03-28T14:33:56Z</time>
      </trkpt>
      <trkpt lat="48.72801" lon="1.96472">
        <ele>168</ele>
        <time>2016-03-28T14:34:00Z</time>
      </trkpt>
      <trkpt lat="48.72805" lon="1.96474">
        <ele>168</ele>
        <time>2016-03-28T14:34:05Z</time>
      </trkpt>
      <trkpt lat="48.72819" lon="1.96474">
        <ele>168</ele>
        <time>2016-03-28T14:34:20Z</time>
      </trkpt>
      <trkpt lat="48.7286" lon="1.96471">
        <ele>167</ele>
        <time>2016-03-28T14:34:53Z</time>
      </trkpt>
      <trkpt lat="48.72866" lon="1.96469">
        <ele>167</ele>
        <time>2016-03-28T14:34:57Z</time>
      </trkpt>
      <trkpt lat="48.72871" lon="1.96468">
        <ele>167</ele>
        <time>2016-03-28T14:35:01Z</time>
      </trkpt>
      <trkpt lat="48.72876" lon="1.96467">
        <ele>167</ele>
        <time>2016-03-28T14:35:06Z</time>
      </trkpt>
      <trkpt lat="48.72881" lon="1.96467">
        <ele>167</ele>
        <time>2016-03-28T14:35:10Z</time>
      </trkpt>
      <trkpt lat="48.72896" lon="1.96467">
        <ele>166</ele>
        <time>2016-03-28T14:35:22Z</time>
      </trkpt>
      <trkpt lat="48.72901" lon="1.96468">
        <ele>166</ele>
        <time>2016-03-28T14:35:26Z</time>
      </trkpt>
      <trkpt lat="48.72906" lon="1.96469">
        <ele>167</ele>
        <time>2016-03-28T14:35:30Z</time>
      </trkpt>
      <trkpt lat="48.72922" lon="1.96469">
        <ele>167</ele>
        <time>2016-03-28T14:35:42Z</time>
      </trkpt>
      <trkpt lat="48.72932" lon="1.96471">
        <ele>168</ele>
        <time>2016-03-28T14:35:51Z</time>
      </trkpt>
      <trkpt lat="48.72948" lon="1.96473">
        <ele>168</ele>
        <time>2016-03-28T14:36:04Z</time>
      </trkpt>
      <trkpt lat="48.72958" lon="1.96476">
        <ele>168</ele>
        <time>2016-03-28T14:36:12Z</time>
      </trkpt>
      <trkpt lat="48.72967" lon="1.96478">
        <ele>168</ele>
        <time>2016-03-28T14:36:21Z</time>
      </trkpt>
      <trkpt lat="48.72982" lon="1.96481">
        <ele>169</ele>
        <time>2016-03-28T14:36:33Z</time>
      </trkpt>
      <trkpt lat="48.72987" lon="1.9648">
        <ele>169</ele>
        <time>2016-03-28T14:36:38Z</time>
      </trkpt>
      <trkpt lat="48.73027" lon="1.96485">
        <ele>169</ele>
        <time>2016-03-28T14:37:09Z</time>
      </trkpt>
      <trkpt lat="48.73066" lon="1.96492">
        <ele>168</ele>
        <time>2016-03-28T14:37:42Z</time>
      </trkpt>
      <trkpt lat="48.73105" lon="1.96498">
        <ele>168</ele>
        <time>2016-03-28T14:38:14Z</time>
      </trkpt>
      <trkpt lat="48.73145" lon="1.96505">
        <ele>167</ele>
        <time>2016-03-28T14:38:47Z</time>
      </trkpt>
      <trkpt lat="48.73185" lon="1.96501">
        <ele>167</ele>
        <time>2016-03-28T14:39:20Z</time>
      </trkpt>
      <trkpt lat="48.73222" lon="1.96499">
        <ele>167</ele>
        <time>2016-03-28T14:39:50Z</time>
      </trkpt>
      <trkpt lat="48.73228" lon="1.96497">
        <ele>167</ele>
        <time>2016-03-28T14:39:54Z</time>
      </trkpt>
      <trkpt lat="48.73262" lon="1.96495">
        <ele>168</ele>
        <time>2016-03-28T14:40:24Z</time>
      </trkpt>
      <trkpt lat="48.73267" lon="1.96494">
        <ele>168</ele>
        <time>2016-03-28T14:40:28Z</time>
      </trkpt>
      <trkpt lat="48.73308" lon="1.96486">
        <ele>167</ele>
        <time>2016-03-28T14:41:03Z</time>
      </trkpt>
      <trkpt lat="48.73342" lon="1.96478">
        <ele>166</ele>
        <time>2016-03-28T14:41:34Z</time>
      </trkpt>
      <trkpt lat="48.7338" lon="1.96472">
        <ele>166</ele>
        <time>2016-03-28T14:42:06Z</time>
      </trkpt>
      <trkpt lat="48.73419" lon="1.96466">
        <ele>167</ele>
        <time>2016-03-28T14:42:37Z</time>
      </trkpt>
      <trkpt lat="48.73455" lon="1.96463">
        <ele>167</ele>
        <time>2016-03-28T14:43:07Z</time>
      </trkpt>
      <trkpt lat="48.7348" lon="1.9646">
        <ele>167</ele>
        <time>2016-03-28T14:43:27Z</time>
      </trkpt>
      <trkpt lat="48.73485" lon="1.96457">
        <ele>167</ele>
        <time>2016-03-28T14:43:31Z</time>
      </trkpt>
      <trkpt lat="48.73496" lon="1.96458">
        <ele>168</ele>
        <time>2016-03-28T14:43:40Z</time>
      </trkpt>
      <trkpt lat="48.73533" lon="1.96456">
        <ele>168</ele>
        <time>2016-03-28T14:44:11Z</time>
      </trkpt>
      <trkpt lat="48.73574" lon="1.96458">
        <ele>168</ele>
        <time>2016-03-28T14:44:43Z</time>
      </trkpt>
      <trkpt lat="48.73609" lon="1.96455">
        <ele>168</ele>
        <time>2016-03-28T14:45:15Z</time>
      </trkpt>
      <trkpt lat="48.73642" lon="1.9645">
        <ele>168</ele>
        <time>2016-03-28T14:45:45Z</time>
      </trkpt>
      <trkpt lat="48.73679" lon="1.96459">
        <ele>170</ele>
        <time>2016-03-28T14:46:18Z</time>
      </trkpt>
      <trkpt lat="48.73689" lon="1.96462">
        <ele>170</ele>
        <time>2016-03-28T14:46:26Z</time>
      </trkpt>
      <trkpt lat="48.73699" lon="1.9646">
        <ele>170</ele>
        <time>2016-03-28T14:46:34Z</time>
      </trkpt>
      <trkpt lat="48.73709" lon="1.96464">
        <ele>170</ele>
        <time>2016-03-28T14:46:43Z</time>
      </trkpt>
      <trkpt lat="48.73725" lon="1.96456">
        <ele>170</ele>
        <time>2016-03-28T14:46:57Z</time>
      </trkpt>
      <trkpt lat="48.73738" lon="1.96429">
        <ele>169</ele>
        <time>2016-03-28T14:47:23Z</time>
      </trkpt>
      <trkpt lat="48.73746" lon="1.9641">
        <ele>170</ele>
        <time>2016-03-28T14:47:36Z</time>
      </trkpt>
      <trkpt lat="48.73757" lon="1.96375">
        <ele>170</ele>
        <time>2016-03-28T14:47:56Z</time>
      </trkpt>
      <trkpt lat="48.73759" lon="1.96368">
        <ele>170</ele>
        <time>2016-03-28T14:48:02Z</time>
      </trkpt>
      <trkpt lat="48.7378" lon="1.96317">
        <ele>169</ele>
        <time>2016-03-28T14:48:37Z</time>
      </trkpt>
      <trkpt lat="48.7379" lon="1.9629">
        <ele>169</ele>
        <time>2016-03-28T14:48:53Z</time>
      </trkpt>
      <trkpt lat="48.73794" lon="1.96275">
        <ele>169</ele>
        <time>2016-03-28T14:48:59Z</time>
      </trkpt>
      <trkpt lat="48.73803" lon="1.96245">
        <ele>169</ele>
        <time>2016-03-28T14:49:15Z</time>
      </trkpt>
      <trkpt lat="48.73805" lon="1.96239">
        <ele>169</ele>
        <time>2016-03-28T14:49:21Z</time>
      </trkpt>
      <trkpt lat="48.73812" lon="1.96227">
        <ele>168</ele>
        <time>2016-03-28T14:49:32Z</time>
      </trkpt>
      <trkpt lat="48.7382" lon="1.96197">
        <ele>168</ele>
        <time>2016-03-28T14:49:47Z</time>
      </trkpt>
      <trkpt lat="48.73824" lon="1.96184">
        <ele>168</ele>
        <time>2016-03-28T14:49:56Z</time>
      </trkpt>
      <trkpt lat="48.73826" lon="1.96177">
        <ele>168</ele>
        <time>2016-03-28T14:50:01Z</time>
      </trkpt>
      <trkpt lat="48.73828" lon="1.96169">
        <ele>168</ele>
        <time>2016-03-28T14:50:05Z</time>
      </trkpt>
      <trkpt lat="48.73831" lon="1.96162">
        <ele>168</ele>
        <time>2016-03-28T14:50:09Z</time>
      </trkpt>
      <trkpt lat="48.73837" lon="1.96143">
        <ele>169</ele>
        <time>2016-03-28T14:50:20Z</time>
      </trkpt>
      <trkpt lat="48.73847" lon="1.96115">
        <ele>168</ele>
        <time>2016-03-28T14:50:40Z</time>
      </trkpt>
      <trkpt lat="48.73849" lon="1.96108">
        <ele>168</ele>
        <time>2016-03-28T14:50:44Z</time>
      </trkpt>
      <trkpt lat="48.73851" lon="1.961">
        <ele>168</ele>
        <time>2016-03-28T14:50:48Z</time>
      </trkpt>
      <trkpt lat="48.73866" lon="1.96058">
        <ele>170</ele>
        <time>2016-03-28T14:51:16Z</time>
      </trkpt>
      <trkpt lat="48.73866" lon="1.96054">
        <ele>170</ele>
        <time>2016-03-28T14:51:50Z</time>
      </trkpt>
      <trkpt lat="48.73864" lon="1.96051">
        <ele>171</ele>
        <time>2016-03-28T14:52:36Z</time>
      </trkpt>
      <trkpt lat="48.73863" lon="1.96048">
        <ele>171</ele>
        <time>2016-03-28T14:53:32Z</time>
      </trkpt>
      <trkpt lat="48.73865" lon="1.96039">
        <ele>171</ele>
        <time>2016-03-28T14:53:41Z</time>
      </trkpt>
      <trkpt lat="48.73863" lon="1.96031">
        <ele>172</ele>
        <time>2016-03-28T14:53:47Z</time>
      </trkpt>
      <trkpt lat="48.73853" lon="1.96016">
        <ele>173</ele>
        <time>2016-03-28T14:54:04Z</time>
      </trkpt>
      <trkpt lat="48.7383" lon="1.95982">
        <ele>173</ele>
        <time>2016-03-28T14:54:35Z</time>
      </trkpt>
      <trkpt lat="48.73827" lon="1.95976">
        <ele>173</ele>
        <time>2016-03-28T14:54:38Z</time>
      </trkpt>
      <trkpt lat="48.73823" lon="1.95971">
        <ele>173</ele>
        <time>2016-03-28T14:54:42Z</time>
      </trkpt>
      <trkpt lat="48.73816" lon="1.9596">
        <ele>173</ele>
        <time>2016-03-28T14:54:51Z</time>
      </trkpt>
      <trkpt lat="48.73811" lon="1.95958">
        <ele>173</ele>
        <time>2016-03-28T14:54:56Z</time>
      </trkpt>
      <trkpt lat="48.7379" lon="1.95936">
        <ele>174</ele>
        <time>2016-03-28T14:55:17Z</time>
      </trkpt>
      <trkpt lat="48.73788" lon="1.95929">
        <ele>174</ele>
        <time>2016-03-28T14:55:20Z</time>
      </trkpt>
      <trkpt lat="48.73772" lon="1.9591">
        <ele>175</ele>
        <time>2016-03-28T14:55:40Z</time>
      </trkpt>
      <trkpt lat="48.73754" lon="1.95881">
        <ele>175</ele>
        <time>2016-03-28T14:56:04Z</time>
      </trkpt>
      <trkpt lat="48.73749" lon="1.95876">
        <ele>174</ele>
        <time>2016-03-28T14:56:11Z</time>
      </trkpt>
      <trkpt lat="48.73741" lon="1.95865">
        <ele>175</ele>
        <time>2016-03-28T14:56:17Z</time>
      </trkpt>
      <trkpt lat="48.7373" lon="1.95859">
        <ele>175</ele>
        <time>2016-03-28T14:56:25Z</time>
      </trkpt>
      <trkpt lat="48.73726" lon="1.95855">
        <ele>174</ele>
        <time>2016-03-28T14:56:29Z</time>
      </trkpt>
      <trkpt lat="48.7371" lon="1.95835">
        <ele>173</ele>
        <time>2016-03-28T14:56:47Z</time>
      </trkpt>
      <trkpt lat="48.73701" lon="1.95827">
        <ele>174</ele>
        <time>2016-03-28T14:56:57Z</time>
      </trkpt>
      <trkpt lat="48.73697" lon="1.95824">
        <ele>174</ele>
        <time>2016-03-28T14:57:00Z</time>
      </trkpt>
      <trkpt lat="48.73683" lon="1.95814">
        <ele>172</ele>
        <time>2016-03-28T14:57:13Z</time>
      </trkpt>
      <trkpt lat="48.73677" lon="1.9581">
        <ele>172</ele>
        <time>2016-03-28T14:57:17Z</time>
      </trkpt>
      <trkpt lat="48.73663" lon="1.95802">
        <ele>173</ele>
        <time>2016-03-28T14:57:29Z</time>
      </trkpt>
      <trkpt lat="48.73628" lon="1.95773">
        <ele>174</ele>
        <time>2016-03-28T14:58:00Z</time>
      </trkpt>
      <trkpt lat="48.73591" lon="1.95745">
        <ele>173</ele>
        <time>2016-03-28T14:58:32Z</time>
      </trkpt>
      <trkpt lat="48.73587" lon="1.95742">
        <ele>173</ele>
        <time>2016-03-28T14:58:36Z</time>
      </trkpt>
      <trkpt lat="48.73578" lon="1.95733">
        <ele>173</ele>
        <time>2016-03-28T14:58:45Z</time>
      </trkpt>
      <trkpt lat="48.73569" lon="1.95725">
        <ele>174</ele>
        <time>2016-03-28T14:58:53Z</time>
      </trkpt>
      <trkpt lat="48.73554" lon="1.95712">
        <ele>174</ele>
        <time>2016-03-28T14:59:05Z</time>
      </trkpt>
      <trkpt lat="48.73545" lon="1.95703">
        <ele>172</ele>
        <time>2016-03-28T14:59:14Z</time>
      </trkpt>
      <trkpt lat="48.73537" lon="1.95696">
        <ele>173</ele>
        <time>2016-03-28T14:59:23Z</time>
      </trkpt>
      <trkpt lat="48.73532" lon="1.95694">
        <ele>173</ele>
        <time>2016-03-28T14:59:27Z</time>
      </trkpt>
      <trkpt lat="48.73523" lon="1.95687">
        <ele>171</ele>
        <time>2016-03-28T14:59:35Z</time>
      </trkpt>
      <trkpt lat="48.73511" lon="1.95675">
        <ele>173</ele>
        <time>2016-03-28T14:59:46Z</time>
      </trkpt>
      <trkpt lat="48.73508" lon="1.95671">
        <ele>173</ele>
        <time>2016-03-28T14:59:50Z</time>
      </trkpt>
      <trkpt lat="48.73499" lon="1.95661">
        <ele>174</ele>
        <time>2016-03-28T14:59:59Z</time>
      </trkpt>
      <trkpt lat="48.73497" lon="1.95654">
        <ele>174</ele>
        <time>2016-03-28T15:00:03Z</time>
      </trkpt>
      <trkpt lat="48.73494" lon="1.95639">
        <ele>173</ele>
        <time>2016-03-28T15:00:13Z</time>
      </trkpt>
      <trkpt lat="48.73492" lon="1.95631">
        <ele>174</ele>
        <time>2016-03-28T15:00:17Z</time>
      </trkpt>
      <trkpt lat="48.73491" lon="1.95624">
        <ele>173</ele>
        <time>2016-03-28T15:00:21Z</time>
      </trkpt>
      <trkpt lat="48.73489" lon="1.95615">
        <ele>173</ele>
        <time>2016-03-28T15:00:25Z</time>
      </trkpt>
      <trkpt lat="48.73488" lon="1.95607">
        <ele>172</ele>
        <time>2016-03-28T15:00:29Z</time>
      </trkpt>
      <trkpt lat="48.73485" lon="1.956">
        <ele>172</ele>
        <time>2016-03-28T15:00:33Z</time>
      </trkpt>
      <trkpt lat="48.73482" lon="1.95586">
        <ele>171</ele>
        <time>2016-03-28T15:00:41Z</time>
      </trkpt>
      <trkpt lat="48.73481" lon="1.95578">
        <ele>171</ele>
        <time>2016-03-28T15:00:45Z</time>
      </trkpt>
      <trkpt lat="48.73475" lon="1.9554">
        <ele>171</ele>
        <time>2016-03-28T15:01:07Z</time>
      </trkpt>
      <trkpt lat="48.73478" lon="1.95534">
        <ele>171</ele>
        <time>2016-03-28T15:01:11Z</time>
      </trkpt>
      <trkpt lat="48.73481" lon="1.95532">
        <ele>171</ele>
        <time>2016-03-28T15:01:19Z</time>
      </trkpt>
      <trkpt lat="48.73485" lon="1.95537">
        <ele>171</ele>
        <time>2016-03-28T15:01:23Z</time>
      </trkpt>
      <trkpt lat="48.73489" lon="1.95533">
        <ele>171</ele>
        <time>2016-03-28T15:02:01Z</time>
      </trkpt>
      <trkpt lat="48.73493" lon="1.95529">
        <ele>171</ele>
        <time>2016-03-28T15:02:08Z</time>
      </trkpt>
      <trkpt lat="48.73495" lon="1.95522">
        <ele>171</ele>
        <time>2016-03-28T15:02:15Z</time>
      </trkpt>
      <trkpt lat="48.73496" lon="1.95518">
        <ele>171</ele>
        <time>2016-03-28T15:02:22Z</time>
      </trkpt>
      <trkpt lat="48.73499" lon="1.95517">
        <ele>171</ele>
        <time>2016-03-28T15:02:29Z</time>
      </trkpt>
      <trkpt lat="48.73503" lon="1.95515">
        <ele>171</ele>
        <time>2016-03-28T15:02:33Z</time>
      </trkpt>
      <trkpt lat="48.73505" lon="1.95518">
        <ele>171</ele>
        <time>2016-03-28T15:04:51Z</time>
      </trkpt>
      <trkpt lat="48.73503" lon="1.95517">
        <ele>171</ele>
        <time>2016-03-28T15:05:24Z</time>
      </trkpt>
      <trkpt lat="48.73504" lon="1.95517">
        <ele>171</ele>
        <time>2016-03-28T15:12:06Z</time>
      </trkpt>
      <trkpt lat="48.73505" lon="1.95535">
        <ele>173</ele>
        <time>2016-03-28T15:13:31Z</time>
      </trkpt>
      <trkpt lat="48.73569" lon="1.95532">
        <ele>173</ele>
        <time>2016-03-28T15:14:14Z</time>
      </trkpt>
      <trkpt lat="48.73539" lon="1.95525">
        <ele>173</ele>
        <time>2016-03-28T15:14:33Z</time>
      </trkpt>
      <trkpt lat="48.73523" lon="1.95526">
        <ele>173</ele>
        <time>2016-03-28T15:14:49Z</time>
      </trkpt>
      <trkpt lat="48.73517" lon="1.95524">
        <ele>173</ele>
        <time>2016-03-28T15:17:17Z</time>
      </trkpt>
      <trkpt lat="48.73507" lon="1.95489">
        <ele>175</ele>
        <time>2016-03-28T15:42:40Z</time>
      </trkpt>
      <trkpt lat="48.73502" lon="1.95491">
        <ele>174</ele>
        <time>2016-03-28T15:42:49Z</time>
      </trkpt>
      <trkpt lat="48.73498" lon="1.95495">
        <ele>174</ele>
        <time>2016-03-28T15:42:53Z</time>
      </trkpt>
      <trkpt lat="48.73497" lon="1.95501">
        <ele>174</ele>
        <time>2016-03-28T15:43:03Z</time>
      </trkpt>
      <trkpt lat="48.73492" lon="1.95514">
        <ele>175</ele>
        <time>2016-03-28T15:43:18Z</time>
      </trkpt>
      <trkpt lat="48.73478" lon="1.95527">
        <ele>175</ele>
        <time>2016-03-28T15:43:35Z</time>
      </trkpt>
      <trkpt lat="48.73476" lon="1.95535">
        <ele>175</ele>
        <time>2016-03-28T15:43:42Z</time>
      </trkpt>
      <trkpt lat="48.73476" lon="1.95562">
        <ele>175</ele>
        <time>2016-03-28T15:43:55Z</time>
      </trkpt>
      <trkpt lat="48.73478" lon="1.9557">
        <ele>175</ele>
        <time>2016-03-28T15:43:59Z</time>
      </trkpt>
      <trkpt lat="48.7348" lon="1.95577">
        <ele>175</ele>
        <time>2016-03-28T15:44:03Z</time>
      </trkpt>
      <trkpt lat="48.73483" lon="1.95583">
        <ele>175</ele>
        <time>2016-03-28T15:44:08Z</time>
      </trkpt>
      <trkpt lat="48.73485" lon="1.95591">
        <ele>175</ele>
        <time>2016-03-28T15:44:14Z</time>
      </trkpt>
      <trkpt lat="48.73485" lon="1.95627">
        <ele>170</ele>
        <time>2016-03-28T15:44:41Z</time>
      </trkpt>
      <trkpt lat="48.73488" lon="1.95645">
        <ele>169</ele>
        <time>2016-03-28T15:44:58Z</time>
      </trkpt>
      <trkpt lat="48.73489" lon="1.95649">
        <ele>169</ele>
        <time>2016-03-28T15:45:22Z</time>
      </trkpt>
      <trkpt lat="48.7349" lon="1.95656">
        <ele>169</ele>
        <time>2016-03-28T15:45:56Z</time>
      </trkpt>
      <trkpt lat="48.73487" lon="1.95661">
        <ele>169</ele>
        <time>2016-03-28T15:47:27Z</time>
      </trkpt>
      <trkpt lat="48.73486" lon="1.95653">
        <ele>168</ele>
        <time>2016-03-28T15:47:38Z</time>
      </trkpt>
      <trkpt lat="48.73458" lon="1.95622">
        <ele>168</ele>
        <time>2016-03-28T15:48:08Z</time>
      </trkpt>
      <trkpt lat="48.73454" lon="1.9562">
        <ele>168</ele>
        <time>2016-03-28T15:48:17Z</time>
      </trkpt>
      <trkpt lat="48.73451" lon="1.95615">
        <ele>168</ele>
        <time>2016-03-28T15:48:23Z</time>
      </trkpt>
      <trkpt lat="48.73445" lon="1.95605">
        <ele>168</ele>
        <time>2016-03-28T15:48:37Z</time>
      </trkpt>
      <trkpt lat="48.7344" lon="1.95602">
        <ele>168</ele>
        <time>2016-03-28T15:48:42Z</time>
      </trkpt>
      <trkpt lat="48.73436" lon="1.95597">
        <ele>168</ele>
        <time>2016-03-28T15:48:47Z</time>
      </trkpt>
      <trkpt lat="48.7343" lon="1.95596">
        <ele>168</ele>
        <time>2016-03-28T15:48:53Z</time>
      </trkpt>
      <trkpt lat="48.73425" lon="1.9559">
        <ele>168</ele>
        <time>2016-03-28T15:48:59Z</time>
      </trkpt>
      <trkpt lat="48.73423" lon="1.95588">
        <ele>168</ele>
        <time>2016-03-28T15:49:05Z</time>
      </trkpt>
      <trkpt lat="48.73397" lon="1.95562">
        <ele>167</ele>
        <time>2016-03-28T15:49:39Z</time>
      </trkpt>
      <trkpt lat="48.73374" lon="1.95524">
        <ele>167</ele>
        <time>2016-03-28T15:50:10Z</time>
      </trkpt>
      <trkpt lat="48.73367" lon="1.95504">
        <ele>166</ele>
        <time>2016-03-28T15:50:23Z</time>
      </trkpt>
      <trkpt lat="48.73363" lon="1.95501">
        <ele>166</ele>
        <time>2016-03-28T15:50:30Z</time>
      </trkpt>
      <trkpt lat="48.73353" lon="1.955">
        <ele>166</ele>
        <time>2016-03-28T15:50:43Z</time>
      </trkpt>
      <trkpt lat="48.73346" lon="1.955">
        <ele>166</ele>
        <time>2016-03-28T15:50:55Z</time>
      </trkpt>
      <trkpt lat="48.73341" lon="1.95498">
        <ele>165</ele>
        <time>2016-03-28T15:51:15Z</time>
      </trkpt>
      <trkpt lat="48.7334" lon="1.95491">
        <ele>165</ele>
        <time>2016-03-28T15:51:18Z</time>
      </trkpt>
      <trkpt lat="48.73336" lon="1.95485">
        <ele>165</ele>
        <time>2016-03-28T15:51:21Z</time>
      </trkpt>
      <trkpt lat="48.73333" lon="1.95478">
        <ele>165</ele>
        <time>2016-03-28T15:51:24Z</time>
      </trkpt>
      <trkpt lat="48.73333" lon="1.95471">
        <ele>165</ele>
        <time>2016-03-28T15:51:27Z</time>
      </trkpt>
      <trkpt lat="48.73335" lon="1.95468">
        <ele>165</ele>
        <time>2016-03-28T15:51:33Z</time>
      </trkpt>
      <trkpt lat="48.73336" lon="1.95461">
        <ele>165</ele>
        <time>2016-03-28T15:51:34Z</time>
      </trkpt>
      <trkpt lat="48.73338" lon="1.95448">
        <ele>164</ele>
        <time>2016-03-28T15:51:49Z</time>
      </trkpt>
      <trkpt lat="48.73341" lon="1.95441">
        <ele>163</ele>
        <time>2016-03-28T15:51:54Z</time>
      </trkpt>
      <trkpt lat="48.73348" lon="1.95432">
        <ele>163</ele>
        <time>2016-03-28T15:52:03Z</time>
      </trkpt>
      <trkpt lat="48.73357" lon="1.95412">
        <ele>163</ele>
        <time>2016-03-28T15:52:19Z</time>
      </trkpt>
      <trkpt lat="48.73359" lon="1.95388">
        <ele>162</ele>
        <time>2016-03-28T15:52:36Z</time>
      </trkpt>
      <trkpt lat="48.73355" lon="1.95382">
        <ele>162</ele>
        <time>2016-03-28T15:52:42Z</time>
      </trkpt>
      <trkpt lat="48.73354" lon="1.95374">
        <ele>161</ele>
        <time>2016-03-28T15:52:48Z</time>
      </trkpt>
      <trkpt lat="48.73349" lon="1.95361">
        <ele>157</ele>
        <time>2016-03-28T15:53:00Z</time>
      </trkpt>
      <trkpt lat="48.73347" lon="1.95351">
        <ele>157</ele>
        <time>2016-03-28T15:53:06Z</time>
      </trkpt>
      <trkpt lat="48.73358" lon="1.95313">
        <ele>149</ele>
        <time>2016-03-28T15:53:34Z</time>
      </trkpt>
      <trkpt lat="48.73362" lon="1.95309">
        <ele>148</ele>
        <time>2016-03-28T15:53:38Z</time>
      </trkpt>
      <trkpt lat="48.73358" lon="1.95299">
        <ele>146</ele>
        <time>2016-03-28T15:53:44Z</time>
      </trkpt>
      <trkpt lat="48.73353" lon="1.95297">
        <ele>145</ele>
        <time>2016-03-28T15:53:47Z</time>
      </trkpt>
      <trkpt lat="48.73324" lon="1.95295">
        <ele>136</ele>
        <time>2016-03-28T15:54:17Z</time>
      </trkpt>
      <trkpt lat="48.73311" lon="1.95288">
        <ele>132</ele>
        <time>2016-03-28T15:54:31Z</time>
      </trkpt>
      <trkpt lat="48.73281" lon="1.95244">
        <ele>121</ele>
        <time>2016-03-28T15:55:18Z</time>
      </trkpt>
      <trkpt lat="48.73269" lon="1.95209">
        <ele>116</ele>
        <time>2016-03-28T15:55:43Z</time>
      </trkpt>
      <trkpt lat="48.73269" lon="1.95201">
        <ele>115</ele>
        <time>2016-03-28T15:55:52Z</time>
      </trkpt>
      <trkpt lat="48.73264" lon="1.952">
        <ele>115</ele>
        <time>2016-03-28T15:56:27Z</time>
      </trkpt>
      <trkpt lat="48.73254" lon="1.95196">
        <ele>114</ele>
        <time>2016-03-28T15:56:33Z</time>
      </trkpt>
      <trkpt lat="48.73233" lon="1.95164">
        <ele>111</ele>
        <time>2016-03-28T15:56:58Z</time>
      </trkpt>
      <trkpt lat="48.73202" lon="1.95117">
        <ele>107</ele>
        <time>2016-03-28T15:57:27Z</time>
      </trkpt>
      <trkpt lat="48.73155" lon="1.95119">
        <ele>103</ele>
        <time>2016-03-28T15:57:58Z</time>
      </trkpt>
      <trkpt lat="48.73145" lon="1.95119">
        <ele>103</ele>
        <time>2016-03-28T15:58:05Z</time>
      </trkpt>
      <trkpt lat="48.73104" lon="1.95116">
        <ele>112</ele>
        <time>2016-03-28T15:58:35Z</time>
      </trkpt>
      <trkpt lat="48.73094" lon="1.9511">
        <ele>112</ele>
        <time>2016-03-28T15:58:43Z</time>
      </trkpt>
      <trkpt lat="48.7309" lon="1.95106">
        <ele>110</ele>
        <time>2016-03-28T15:58:47Z</time>
      </trkpt>
      <trkpt lat="48.73075" lon="1.95087">
        <ele>109</ele>
        <time>2016-03-28T15:58:59Z</time>
      </trkpt>
      <trkpt lat="48.73068" lon="1.95077">
        <ele>112</ele>
        <time>2016-03-28T15:59:07Z</time>
      </trkpt>
      <trkpt lat="48.73044" lon="1.95039">
        <ele>114</ele>
        <time>2016-03-28T15:59:31Z</time>
      </trkpt>
      <trkpt lat="48.7304" lon="1.95032">
        <ele>114</ele>
        <time>2016-03-28T15:59:35Z</time>
      </trkpt>
      <trkpt lat="48.73033" lon="1.95018">
        <ele>113</ele>
        <time>2016-03-28T15:59:42Z</time>
      </trkpt>
      <trkpt lat="48.73023" lon="1.95002">
        <ele>114</ele>
        <time>2016-03-28T15:59:52Z</time>
      </trkpt>
      <trkpt lat="48.7302" lon="1.94995">
        <ele>113</ele>
        <time>2016-03-28T15:59:55Z</time>
      </trkpt>
      <trkpt lat="48.73009" lon="1.94978">
        <ele>114</ele>
        <time>2016-03-28T16:00:06Z</time>
      </trkpt>
      <trkpt lat="48.73005" lon="1.94972">
        <ele>114</ele>
        <time>2016-03-28T16:00:09Z</time>
      </trkpt>
      <trkpt lat="48.73001" lon="1.94967">
        <ele>115</ele>
        <time>2016-03-28T16:00:12Z</time>
      </trkpt>
      <trkpt lat="48.72999" lon="1.9496">
        <ele>115</ele>
        <time>2016-03-28T16:00:18Z</time>
      </trkpt>
      <trkpt lat="48.73002" lon="1.94959">
        <ele>117</ele>
        <time>2016-03-28T16:00:58Z</time>
      </trkpt>
      <trkpt lat="48.73" lon="1.94953">
        <ele>120</ele>
        <time>2016-03-28T16:01:19Z</time>
      </trkpt>
      <trkpt lat="48.72998" lon="1.94947">
        <ele>120</ele>
        <time>2016-03-28T16:01:23Z</time>
      </trkpt>
      <trkpt lat="48.72988" lon="1.94942">
        <ele>120</ele>
        <time>2016-03-28T16:01:31Z</time>
      </trkpt>
      <trkpt lat="48.72984" lon="1.94938">
        <ele>120</ele>
        <time>2016-03-28T16:01:34Z</time>
      </trkpt>
      <trkpt lat="48.7298" lon="1.94934">
        <ele>120</ele>
        <time>2016-03-28T16:01:37Z</time>
      </trkpt>
      <trkpt lat="48.72975" lon="1.94935">
        <ele>121</ele>
        <time>2016-03-28T16:01:46Z</time>
      </trkpt>
      <trkpt lat="48.72965" lon="1.94939">
        <ele>121</ele>
        <time>2016-03-28T16:01:53Z</time>
      </trkpt>
      <trkpt lat="48.72962" lon="1.94943">
        <ele>121</ele>
        <time>2016-03-28T16:01:55Z</time>
      </trkpt>
      <trkpt lat="48.72959" lon="1.94949">
        <ele>121</ele>
        <time>2016-03-28T16:01:58Z</time>
      </trkpt>
      <trkpt lat="48.72953" lon="1.94952">
        <ele>121</ele>
        <time>2016-03-28T16:02:02Z</time>
      </trkpt>
      <trkpt lat="48.72942" lon="1.94982">
        <ele>123</ele>
        <time>2016-03-28T16:02:20Z</time>
      </trkpt>
      <trkpt lat="48.72934" lon="1.94988">
        <ele>123</ele>
        <time>2016-03-28T16:02:27Z</time>
      </trkpt>
      <trkpt lat="48.72922" lon="1.95005">
        <ele>123</ele>
        <time>2016-03-28T16:02:36Z</time>
      </trkpt>
      <trkpt lat="48.72893" lon="1.95051">
        <ele>119</ele>
        <time>2016-03-28T16:03:08Z</time>
      </trkpt>
      <trkpt lat="48.72856" lon="1.95099">
        <ele>115</ele>
        <time>2016-03-28T16:03:40Z</time>
      </trkpt>
      <trkpt lat="48.72831" lon="1.95127">
        <ele>114</ele>
        <time>2016-03-28T16:03:57Z</time>
      </trkpt>
      <trkpt lat="48.72828" lon="1.9513">
        <ele>113</ele>
        <time>2016-03-28T16:03:59Z</time>
      </trkpt>
      <trkpt lat="48.72785" lon="1.95159">
        <ele>112</ele>
        <time>2016-03-28T16:04:31Z</time>
      </trkpt>
      <trkpt lat="48.72771" lon="1.95167">
        <ele>112</ele>
        <time>2016-03-28T16:04:42Z</time>
      </trkpt>
      <trkpt lat="48.72767" lon="1.95172">
        <ele>113</ele>
        <time>2016-03-28T16:04:46Z</time>
      </trkpt>
      <trkpt lat="48.72758" lon="1.95176">
        <ele>114</ele>
        <time>2016-03-28T16:04:54Z</time>
      </trkpt>
      <trkpt lat="48.72754" lon="1.95179">
        <ele>114</ele>
        <time>2016-03-28T16:04:56Z</time>
      </trkpt>
      <trkpt lat="48.72744" lon="1.95189">
        <ele>115</ele>
        <time>2016-03-28T16:05:05Z</time>
      </trkpt>
      <trkpt lat="48.72739" lon="1.95192">
        <ele>115</ele>
        <time>2016-03-28T16:05:08Z</time>
      </trkpt>
      <trkpt lat="48.72696" lon="1.95218">
        <ele>113</ele>
        <time>2016-03-28T16:05:41Z</time>
      </trkpt>
      <trkpt lat="48.72683" lon="1.9523">
        <ele>113</ele>
        <time>2016-03-28T16:05:50Z</time>
      </trkpt>
      <trkpt lat="48.72661" lon="1.95241">
        <ele>111</ele>
        <time>2016-03-28T16:06:04Z</time>
      </trkpt>
      <trkpt lat="48.72615" lon="1.95247">
        <ele>110</ele>
        <time>2016-03-28T16:06:36Z</time>
      </trkpt>
      <trkpt lat="48.72604" lon="1.9525">
        <ele>110</ele>
        <time>2016-03-28T16:06:43Z</time>
      </trkpt>
      <trkpt lat="48.72594" lon="1.95256">
        <ele>109</ele>
        <time>2016-03-28T16:06:51Z</time>
      </trkpt>
      <trkpt lat="48.72589" lon="1.95257">
        <ele>109</ele>
        <time>2016-03-28T16:06:55Z</time>
      </trkpt>
      <trkpt lat="48.72549" lon="1.95294">
        <ele>109</ele>
        <time>2016-03-28T16:07:25Z</time>
      </trkpt>
      <trkpt lat="48.72512" lon="1.95337">
        <ele>108</ele>
        <time>2016-03-28T16:07:56Z</time>
      </trkpt>
      <trkpt lat="48.72508" lon="1.9534">
        <ele>108</ele>
        <time>2016-03-28T16:07:59Z</time>
      </trkpt>
      <trkpt lat="48.72485" lon="1.9536">
        <ele>108</ele>
        <time>2016-03-28T16:08:17Z</time>
      </trkpt>
      <trkpt lat="48.72477" lon="1.95367">
        <ele>108</ele>
        <time>2016-03-28T16:08:23Z</time>
      </trkpt>
      <trkpt lat="48.72468" lon="1.95376">
        <ele>108</ele>
        <time>2016-03-28T16:08:30Z</time>
      </trkpt>
      <trkpt lat="48.72463" lon="1.95379">
        <ele>108</ele>
        <time>2016-03-28T16:08:34Z</time>
      </trkpt>
      <trkpt lat="48.72423" lon="1.95407">
        <ele>108</ele>
        <time>2016-03-28T16:09:04Z</time>
      </trkpt>
      <trkpt lat="48.72382" lon="1.95436">
        <ele>108</ele>
        <time>2016-03-28T16:09:35Z</time>
      </trkpt>
      <trkpt lat="48.72377" lon="1.95439">
        <ele>108</ele>
        <time>2016-03-28T16:09:39Z</time>
      </trkpt>
      <trkpt lat="48.7237" lon="1.95444">
        <ele>108</ele>
        <time>2016-03-28T16:09:43Z</time>
      </trkpt>
      <trkpt lat="48.72354" lon="1.95461">
        <ele>108</ele>
        <time>2016-03-28T16:09:57Z</time>
      </trkpt>
      <trkpt lat="48.72355" lon="1.9547">
        <ele>107</ele>
        <time>2016-03-28T16:10:02Z</time>
      </trkpt>
      <trkpt lat="48.72359" lon="1.9548">
        <ele>107</ele>
        <time>2016-03-28T16:10:08Z</time>
      </trkpt>
      <trkpt lat="48.72363" lon="1.95486">
        <ele>107</ele>
        <time>2016-03-28T16:10:12Z</time>
      </trkpt>
      <trkpt lat="48.72383" lon="1.95542">
        <ele>106</ele>
        <time>2016-03-28T16:10:42Z</time>
      </trkpt>
      <trkpt lat="48.72386" lon="1.95551">
        <ele>106</ele>
        <time>2016-03-28T16:10:47Z</time>
      </trkpt>
      <trkpt lat="48.72392" lon="1.95564">
        <ele>106</ele>
        <time>2016-03-28T16:10:56Z</time>
      </trkpt>
      <trkpt lat="48.72394" lon="1.9558">
        <ele>106</ele>
        <time>2016-03-28T16:11:04Z</time>
      </trkpt>
      <trkpt lat="48.72384" lon="1.95625">
        <ele>105</ele>
        <time>2016-03-28T16:11:28Z</time>
      </trkpt>
      <trkpt lat="48.72385" lon="1.95634">
        <ele>105</ele>
        <time>2016-03-28T16:11:32Z</time>
      </trkpt>
      <trkpt lat="48.72399" lon="1.95651">
        <ele>105</ele>
        <time>2016-03-28T16:11:42Z</time>
      </trkpt>
      <trkpt lat="48.72404" lon="1.95653">
        <ele>105</ele>
        <time>2016-03-28T16:11:45Z</time>
      </trkpt>
      <trkpt lat="48.72408" lon="1.95655">
        <ele>105</ele>
        <time>2016-03-28T16:11:48Z</time>
      </trkpt>
      <trkpt lat="48.72413" lon="1.95656">
        <ele>106</ele>
        <time>2016-03-28T16:11:53Z</time>
      </trkpt>
      <trkpt lat="48.72446" lon="1.95678">
        <ele>111</ele>
        <time>2016-03-28T16:12:20Z</time>
      </trkpt>
      <trkpt lat="48.72449" lon="1.95715">
        <ele>115</ele>
        <time>2016-03-28T16:12:40Z</time>
      </trkpt>
      <trkpt lat="48.72446" lon="1.95719">
        <ele>116</ele>
        <time>2016-03-28T16:12:46Z</time>
      </trkpt>
      <trkpt lat="48.72434" lon="1.95754">
        <ele>119</ele>
        <time>2016-03-28T16:13:05Z</time>
      </trkpt>
      <trkpt lat="48.72437" lon="1.95761">
        <ele>120</ele>
        <time>2016-03-28T16:13:11Z</time>
      </trkpt>
      <trkpt lat="48.72433" lon="1.95767">
        <ele>122</ele>
        <time>2016-03-28T16:13:19Z</time>
      </trkpt>
      <trkpt lat="48.72426" lon="1.9578">
        <ele>123</ele>
        <time>2016-03-28T16:13:31Z</time>
      </trkpt>
      <trkpt lat="48.72428" lon="1.95788">
        <ele>125</ele>
        <time>2016-03-28T16:13:40Z</time>
      </trkpt>
      <trkpt lat="48.72422" lon="1.95793">
        <ele>127</ele>
        <time>2016-03-28T16:13:49Z</time>
      </trkpt>
      <trkpt lat="48.72421" lon="1.95806">
        <ele>127</ele>
        <time>2016-03-28T16:14:02Z</time>
      </trkpt>
      <trkpt lat="48.72421" lon="1.95811">
        <ele>130</ele>
        <time>2016-03-28T16:31:15Z</time>
      </trkpt>
    </trkseg>
  </trk>
</gpx>